PORTS® Data Listing: 8465705 New Haven, CT

CO-OPS RAW PORTS DATA

************************      PRELIMINARY DATA      ************************** 

     THIS RAW DATA HAS NOT BEEN SUBJECT TO THE NATIONAL OCEAN SERVICE'S        
     QUALITY CONTROL OR QUALITY ASSURANCE PROCEDURES AND DOES NOT MEET         
     THE CRITERIA AND STANDARDS OF OFFICIAL NATIONAL OCEAN SERVICE             
     DATA.  IT IS RELEASED FOR LIMITED PUBLIC USE AS PRELIMINARY DATA TO       
     BE USED ONLY WITH APPROPRIATE CAUTION.                                    

************************      PRELIMINARY DATA      ************************** 


       CD   -   Calendar date
       T    -   Time
       TZ   -   Timezone
       PW   -   Predicted water level (feet above MLLW)
       OW   -   Observed water level (feet above MLLW)
       WS   -   Wind speed (knots)
       WD   -   Wind direction (degrees true)
       WG   -   Wind gust (knots)
       AT   -   Air temperature (degrees farenheit)
       WT   -   Water temperature (degrees farenheit)
       AP   -   Air pressure (millibars)
       SA   -   Salinty (PSU - Practical Salinity Units)
       SG   -   Specific gravity
       RH   -   Relative humidity
       AG   -   Air gap (feet)
       VI   -   Visibility (nautical miles)

       ** NOTE **
       A variable that has its data fields filled with "9"s, indicates that
       data was not collected for that sample period.
       **********


STATION NAME: New Haven (8465705)
****************************************************************************************************
    CD       T    TZ    PW     OW    WS   WD   WG    AT    WT    AP    SA    SG     RH    AG   VI
****************************************************************************************************
2020/01/24 05:06 EST    0.25   0.40    3   50    5  31.1  37.0 1027.0 -9.9 -9.999 -99.9 -99.99 -9.99
2020/01/24 05:12 EST    0.32   0.44    4   56    5  30.7  37.0 1027.1 -9.9 -9.999 -99.9 -99.99 -9.99
2020/01/24 05:18 EST    0.39   0.51    2   41    5  30.7  37.0 1027.2 -9.9 -9.999 -99.9 -99.99 -9.99
2020/01/24 05:24 EST    0.48   0.58    2   48    4  30.9  37.0 1027.4 -9.9 -9.999 -99.9 -99.99 -9.99
2020/01/24 05:30 EST    0.57   0.67    2   44    4  30.9  37.0 1027.5 -9.9 -9.999 -99.9 -99.99 -9.99
2020/01/24 05:36 EST    0.66   0.76    2   44    4  30.9  37.0 1027.4 -9.9 -9.999 -99.9 -99.99 -9.99
2020/01/24 05:42 EST    0.77   0.86    3   64    4  30.7  37.0 1027.4 -9.9 -9.999 -99.9 -99.99 -9.99
2020/01/24 05:48 EST    0.88   0.99    3   53    6  30.7  37.0 1027.5 -9.9 -9.999 -99.9 -99.99 -9.99
2020/01/24 05:54 EST    0.99   1.13    3   48    5  30.7  37.0 1027.6 -9.9 -9.999 -99.9 -99.99 -9.99
2020/01/24 06:00 EST    1.11   1.26    2   52    5  30.9  37.2 1027.7 -9.9 -9.999 -99.9 -99.99 -9.99
2020/01/24 06:06 EST    1.23   1.38    2   29    6  31.1  37.0 1027.8 -9.9 -9.999 -99.9 -99.99 -9.99
2020/01/24 06:12 EST    1.36   1.50    2   31    5  31.3  37.0 1027.8 -9.9 -9.999 -99.9 -99.99 -9.99
2020/01/24 06:18 EST    1.49   1.63    4   52    6  30.9  37.0 1027.8 -9.9 -9.999 -99.9 -99.99 -9.99
2020/01/24 06:24 EST    1.63   1.75    5   56    7  30.7  37.0 1027.8 -9.9 -9.999 -99.9 -99.99 -9.99
2020/01/24 06:30 EST    1.76   1.89    3   47    6  30.7  37.0 1027.9 -9.9 -9.999 -99.9 -99.99 -9.99
2020/01/24 06:36 EST    1.90   2.02    2   61    5  30.7  37.0 1028.1 -9.9 -9.999 -99.9 -99.99 -9.99
2020/01/24 06:42 EST    2.04   2.16    1   19    5  30.9  37.0 1028.1 -9.9 -9.999 -99.9 -99.99 -9.99
2020/01/24 06:48 EST    2.19   2.32    2   53    6  31.3  37.0 1028.1 -9.9 -9.999 -99.9 -99.99 -9.99
2020/01/24 06:54 EST    2.33   2.48    3   35    5  31.1  37.0 1028.2 -9.9 -9.999 -99.9 -99.99 -9.99
2020/01/24 07:00 EST    2.48   2.67    4   46    6  31.1  37.0 1028.3 -9.9 -9.999 -99.9 -99.99 -9.99
2020/01/24 07:06 EST    2.62   2.84    3   26    7  31.5  37.0 1028.3 -9.9 -9.999 -99.9 -99.99 -9.99
2020/01/24 07:12 EST    2.77   3.01    2   64    6  31.5  37.0 1028.4 -9.9 -9.999 -99.9 -99.99 -9.99
2020/01/24 07:18 EST    2.92   3.19    4   46    7  31.1  37.0 1028.4 -9.9 -9.999 -99.9 -99.99 -9.99
2020/01/24 07:24 EST    3.07   3.34    2   28    6  31.3  37.0 1028.5 -9.9 -9.999 -99.9 -99.99 -9.99
2020/01/24 07:30 EST    3.22   3.48    3   25    8  32.0  37.0 1028.6 -9.9 -9.999 -99.9 -99.99 -9.99
2020/01/24 07:36 EST    3.37   3.62    3   34    7  32.7  37.0 1028.6 -9.9 -9.999 -99.9 -99.99 -9.99
2020/01/24 07:42 EST    3.52   3.76    3   39    7  33.1  37.0 1028.7 -9.9 -9.999 -99.9 -99.99 -9.99
2020/01/24 07:48 EST    3.68   3.92    3   40    7  33.4  37.0 1028.8 -9.9 -9.999 -99.9 -99.99 -9.99
2020/01/24 07:54 EST    3.83   4.07    2   26    7  34.0  37.0 1028.9 -9.9 -9.999 -99.9 -99.99 -9.99
2020/01/24 08:00 EST    3.98   4.21    4   39    9  34.0  37.0 1028.8 -9.9 -9.999 -99.9 -99.99 -9.99
2020/01/24 08:06 EST    4.13   4.36    2   30    6  34.5  37.0 1028.8 -9.9 -9.999 -99.9 -99.99 -9.99
2020/01/24 08:12 EST    4.28   4.51    3   53    7  34.0  37.0 1028.8 -9.9 -9.999 -99.9 -99.99 -9.99
2020/01/24 08:18 EST    4.44   4.64    2   54    6  34.5  37.0 1028.8 -9.9 -9.999 -99.9 -99.99 -9.99
2020/01/24 08:24 EST    4.58   4.77    2   28    7  34.3  37.0 1028.9 -9.9 -9.999 -99.9 -99.99 -9.99
2020/01/24 08:30 EST    4.73   4.90    2   69    5  34.5  37.0 1028.9 -9.9 -9.999 -99.9 -99.99 -9.99
2020/01/24 08:36 EST    4.88   5.03    1   61    7  35.1  37.0 1028.9 -9.9 -9.999 -99.9 -99.99 -9.99
2020/01/24 08:42 EST    5.02   5.19    2   31    7  35.6  37.0 1028.9 -9.9 -9.999 -99.9 -99.99 -9.99
2020/01/24 08:48 EST    5.16   5.36    3   45    5  35.4  37.0 1028.9 -9.9 -9.999 -99.9 -99.99 -9.99
2020/01/24 08:54 EST    5.30   5.50    2   39    6  35.6  37.0 1028.9 -9.9 -9.999 -99.9 -99.99 -9.99
2020/01/24 09:00 EST    5.44   5.64    2   15    7  35.8  37.0 1029.1 -9.9 -9.999 -99.9 -99.99 -9.99
2020/01/24 09:06 EST    5.57   5.77    3   19    8  35.8  37.0 1029.1 -9.9 -9.999 -99.9 -99.99 -9.99
2020/01/24 09:12 EST    5.69   5.90    3   21    6  36.1  37.0 1029.1 -9.9 -9.999 -99.9 -99.99 -9.99
2020/01/24 09:18 EST    5.81   6.01    3   29    6  36.3  36.9 1029.3 -9.9 -9.999 -99.9 -99.99 -9.99
2020/01/24 09:24 EST    5.93   6.11    2   14    5  36.7  36.9 1029.3 -9.9 -9.999 -99.9 -99.99 -9.99
2020/01/24 09:30 EST    6.04   6.22    2   56    6  37.0  36.9 1029.3 -9.9 -9.999 -99.9 -99.99 -9.99
2020/01/24 09:36 EST    6.14   6.31    2  112    6  37.6  37.0 1029.3 -9.9 -9.999 -99.9 -99.99 -9.99
2020/01/24 09:42 EST    6.23   6.38    3   44    8  37.4  37.0 1029.3 -9.9 -9.999 -99.9 -99.99 -9.99
2020/01/24 09:48 EST    6.31   6.44    3   82    7  37.8  37.0 1029.3 -9.9 -9.999 -99.9 -99.99 -9.99
2020/01/24 09:54 EST    6.39   6.52    3   58    6  37.9  37.0 1029.3 -9.9 -9.999 -99.9 -99.99 -9.99
2020/01/24 10:00 EST    6.46   6.59    3   52    7  37.9  37.0 1029.3 -9.9 -9.999 -99.9 -99.99 -9.99
2020/01/24 10:06 EST    6.52   6.64    4   55    8  37.9  37.0 1029.3 -9.9 -9.999 -99.9 -99.99 -9.99
2020/01/24 10:12 EST    6.57   6.70    4   60    9  38.1  37.0 1029.3 -9.9 -9.999 -99.9 -99.99 -9.99
2020/01/24 10:18 EST    6.61   6.76    3   65    8  37.9  37.0 1029.4 -9.9 -9.999 -99.9 -99.99 -9.99
2020/01/24 10:24 EST    6.64   6.84    2   53    8  38.3  37.2 1029.4 -9.9 -9.999 -99.9 -99.99 -9.99
2020/01/24 10:30 EST    6.65   6.90    2   66    7  38.7  37.2 1029.5 -9.9 -9.999 -99.9 -99.99 -9.99
2020/01/24 10:36 EST    6.66   6.96    2   89    4  39.2  37.2 1029.6 -9.9 -9.999 -99.9 -99.99 -9.99
2020/01/24 10:42 EST    6.66   6.99    3   81    7  39.2  37.2 1029.5 -9.9 -9.999 -99.9 -99.99 -9.99
2020/01/24 10:48 EST    6.65   7.01    2   52    7  39.6  37.2 1029.5 -9.9 -9.999 -99.9 -99.99 -9.99
2020/01/24 10:54 EST    6.63   7.02    2   67    6  40.1  37.2 1029.3 -9.9 -9.999 -99.9 -99.99 -9.99
2020/01/24 11:00 EST    6.60   6.98    3   72    6  41.0  37.2 1028.9 -9.9 -9.999 -99.9 -99.99 -9.99
2020/01/24 11:06 EST    6.55   6.90    4   92    7  41.5  37.2 1028.9 -9.9 -9.999 -99.9 -99.99 -9.99
2020/01/24 11:12 EST    6.50   6.86    2   51    5  42.3  37.2 1028.8 -9.9 -9.999 -99.9 -99.99 -9.99
2020/01/24 11:18 EST    6.44   6.83    1   67    4  42.8  37.4 1028.7 -9.9 -9.999 -99.9 -99.99 -9.99
2020/01/24 11:24 EST    6.38   6.78    2   29    4  43.2  37.4 1028.7 -9.9 -9.999 -99.9 -99.99 -9.99
2020/01/24 11:30 EST    6.30   6.71    1   48    4  43.5  37.4 1028.6 -9.9 -9.999 -99.9 -99.99 -9.99
2020/01/24 11:36 EST    6.21   6.64    4  347    5  43.3  37.4 1028.6 -9.9 -9.999 -99.9 -99.99 -9.99
2020/01/24 11:42 EST    6.12   6.57    2   11    4  43.5  37.4 1028.5 -9.9 -9.999 -99.9 -99.99 -9.99
2020/01/24 11:48 EST    6.02   6.49    1  353    5  44.2  37.4 1028.5 -9.9 -9.999 -99.9 -99.99 -9.99
2020/01/24 11:54 EST    5.92   6.41    2  354    5  44.6  37.4 1028.4 -9.9 -9.999 -99.9 -99.99 -9.99
2020/01/24 12:00 EST    5.81   6.32    1    6    2  45.5  37.4 1028.2 -9.9 -9.999 -99.9 -99.99 -9.99
2020/01/24 12:06 EST    5.69   6.19    1   50    4  45.7  37.4 1028.1 -9.9 -9.999 -99.9 -99.99 -9.99
2020/01/24 12:12 EST    5.57   6.06    1  340    4  46.0  37.4 1028.0 -9.9 -9.999 -99.9 -99.99 -9.99
2020/01/24 12:18 EST    5.45   5.93    1  354    4  46.4  37.4 1027.9 -9.9 -9.999 -99.9 -99.99 -9.99
2020/01/24 12:24 EST    5.32   5.79    2  354    4  46.6  37.4 1027.7 -9.9 -9.999 -99.9 -99.99 -9.99
2020/01/24 12:30 EST    5.19   5.65    1  346    4  47.3  37.4 1027.6 -9.9 -9.999 -99.9 -99.99 -9.99
2020/01/24 12:36 EST    5.05   5.48    1  334    4  47.1  37.4 1027.4 -9.9 -9.999 -99.9 -99.99 -9.99
2020/01/24 12:42 EST    4.92   5.31    1   38    4  47.7  37.4 1027.3 -9.9 -9.999 -99.9 -99.99 -9.99
2020/01/24 12:48 EST    4.78   5.16    1  335    4  48.0  37.4 1027.3 -9.9 -9.999 -99.9 -99.99 -9.99
2020/01/24 12:54 EST    4.63   5.02    1  355    3  48.6  37.4 1027.2 -9.9 -9.999 -99.9 -99.99 -9.99
2020/01/24 13:00 EST    4.49   4.87    2    3    4  48.7  37.4 1027.1 -9.9 -9.999 -99.9 -99.99 -9.99
2020/01/24 13:06 EST    4.34   4.72    1   38    4  48.7  37.4 1027.1 -9.9 -9.999 -99.9 -99.99 -9.99
2020/01/24 13:12 EST    4.20   4.57    2   12    4  49.1  37.4 1027.0 -9.9 -9.999 -99.9 -99.99 -9.99
2020/01/24 13:18 EST    4.05   4.43    1  348    4  49.6  37.4 1026.9 -9.9 -9.999 -99.9 -99.99 -9.99
2020/01/24 13:24 EST    3.90   4.28    3    1    6  49.6  37.4 1026.8 -9.9 -9.999 -99.9 -99.99 -9.99
2020/01/24 13:30 EST    3.75   4.14    2  357    4  49.8  37.4 1026.8 -9.9 -9.999 -99.9 -99.99 -9.99
2020/01/24 13:36 EST    3.59   3.97    1   12    4  50.0  37.4 1026.7 -9.9 -9.999 -99.9 -99.99 -9.99
2020/01/24 13:42 EST    3.44   3.80    1  117    4  48.9  37.4 1026.7 -9.9 -9.999 -99.9 -99.99 -9.99
2020/01/24 13:48 EST    3.29   3.59    5  214    5  41.9  37.4 1026.6 -9.9 -9.999 -99.9 -99.99 -9.99
2020/01/24 13:54 EST    3.13   3.43    5  221    6  40.5  37.4 1026.7 -9.9 -9.999 -99.9 -99.99 -9.99
2020/01/24 14:00 EST    2.97   3.28    6  219    6  40.5  37.4 1026.7 -9.9 -9.999 -99.9 -99.99 -9.99
2020/01/24 14:06 EST    2.82   3.15    7  192    7  42.4  37.4 1026.7 -9.9 -9.999 -99.9 -99.99 -9.99
2020/01/24 14:12 EST    2.66   3.02    6  180    7  43.7  37.4 1026.8 -9.9 -9.999 -99.9 -99.99 -9.99
2020/01/24 14:18 EST    2.50   2.88    4  163    6  45.3  37.4 1026.8 -9.9 -9.999 -99.9 -99.99 -9.99
2020/01/24 14:24 EST    2.35   2.73    6  159    7  46.0  37.4 1026.7 -9.9 -9.999 -99.9 -99.99 -9.99
2020/01/24 14:30 EST    2.19   2.58    5  170    6  45.5  37.4 1026.7 -9.9 -9.999 -99.9 -99.99 -9.99
2020/01/24 14:36 EST    2.03   2.45    5  158    6  45.7  37.4 1026.8 -9.9 -9.999 -99.9 -99.99 -9.99
2020/01/24 14:42 EST    1.88   2.31    5  158    6  45.9  37.4 1026.7 -9.9 -9.999 -99.9 -99.99 -9.99
2020/01/24 14:48 EST    1.72   2.17    4  163    5  45.7  37.4 1026.7 -9.9 -9.999 -99.9 -99.99 -9.99
2020/01/24 14:54 EST    1.57   2.04    5  135    6  46.0  37.4 1026.7 -9.9 -9.999 -99.9 -99.99 -9.99
2020/01/24 15:00 EST    1.42   1.92    4  150    6  46.0  37.4 1026.6 -9.9 -9.999 -99.9 -99.99 -9.99
2020/01/24 15:06 EST    1.27   1.79    4  132    6  46.4  37.4 1026.5 -9.9 -9.999 -99.9 -99.99 -9.99
2020/01/24 15:12 EST    1.12   1.67    3  129    6  46.6  37.4 1026.5 -9.9 -9.999 -99.9 -99.99 -9.99
2020/01/24 15:18 EST    0.98   1.53    3  147    5  46.8  37.4 1026.4 -9.9 -9.999 -99.9 -99.99 -9.99
2020/01/24 15:24 EST    0.84   1.39    4  145    5  46.6  37.4 1026.3 -9.9 -9.999 -99.9 -99.99 -9.99
2020/01/24 15:30 EST    0.70   1.25    3  149    5  46.4  37.4 1026.3 -9.9 -9.999 -99.9 -99.99 -9.99
2020/01/24 15:36 EST    0.58   1.11    4  124    7  46.0  37.4 1026.3 -9.9 -9.999 -99.9 -99.99 -9.99
2020/01/24 15:42 EST    0.45   0.97    5  140    7  45.7  37.4 1026.4 -9.9 -9.999 -99.9 -99.99 -9.99
2020/01/24 15:48 EST    0.34   0.83    5  139    6  45.1  37.4 1026.5 -9.9 -9.999 -99.9 -99.99 -9.99
2020/01/24 15:54 EST    0.23   0.72    6  145    8  44.6  37.4 1026.5 -9.9 -9.999 -99.9 -99.99 -9.99
2020/01/24 16:00 EST    0.13   0.63    6  147    7  43.9  37.4 1026.5 -9.9 -9.999 -99.9 -99.99 -9.99
2020/01/24 16:06 EST    0.03   0.53    6  139    9  44.1  37.4 1026.5 -9.9 -9.999 -99.9 -99.99 -9.99
2020/01/24 16:12 EST   -0.05   0.42    6  134    9  44.4  37.6 1026.4 -9.9 -9.999 -99.9 -99.99 -9.99
2020/01/24 16:18 EST   -0.13   0.34    6  120   10  44.4  37.6 1026.3 -9.9 -9.999 -99.9 -99.99 -9.99
2020/01/24 16:24 EST   -0.20   0.25    7  119   12  44.4  37.6 1026.3 -9.9 -9.999 -99.9 -99.99 -9.99
2020/01/24 16:30 EST   -0.26   0.19    6  119   10  44.2  37.8 1026.2 -9.9 -9.999 -99.9 -99.99 -9.99
2020/01/24 16:36 EST   -0.30   0.13    6  115   10  44.4  37.8 1026.2 -9.9 -9.999 -99.9 -99.99 -9.99
2020/01/24 16:42 EST   -0.34   0.06    5  114    9  44.2  37.9 1026.2 -9.9 -9.999 -99.9 -99.99 -9.99
2020/01/24 16:48 EST   -0.37  -0.02    6  113    9  44.2  37.9 1026.1 -9.9 -9.999 -99.9 -99.99 -9.99
2020/01/24 16:54 EST   -0.39  -0.06    5  117    7  44.1  37.9 1026.2 -9.9 -9.999 -99.9 -99.99 -9.99
2020/01/24 17:00 EST   -0.39  -0.12    4  119   10  43.7  37.9 1026.3 -9.9 -9.999 -99.9 -99.99 -9.99
2020/01/24 17:06 EST   -0.39  -0.14    5  108    6  43.9  37.9 1026.3 -9.9 -9.999 -99.9 -99.99 -9.99
2020/01/24 17:12 EST   -0.38  -0.16    6  107    9  43.7  38.1 1026.3 -9.9 -9.999 -99.9 -99.99 -9.99
2020/01/24 17:18 EST   -0.36  -0.15    4  107    8  43.5  38.1 1026.2 -9.9 -9.999 -99.9 -99.99 -9.99
2020/01/24 17:24 EST   -0.32  -0.13    8   99   11  43.5  37.9 1026.2 -9.9 -9.999 -99.9 -99.99 -9.99
2020/01/24 17:30 EST   -0.28  -0.09    7  106   10  43.2  37.9 1026.2 -9.9 -9.999 -99.9 -99.99 -9.99
2020/01/24 17:36 EST   -0.23  -0.04    7  102   10  43.2  38.1 1026.2 -9.9 -9.999 -99.9 -99.99 -9.99
2020/01/24 17:42 EST   -0.17   0.05    4  103    9  43.0  38.1 1026.3 -9.9 -9.999 -99.9 -99.99 -9.99
2020/01/24 17:48 EST   -0.10   0.14    5   93    9  43.0  37.9 1026.3 -9.9 -9.999 -99.9 -99.99 -9.99
2020/01/24 17:54 EST   -0.03   0.21    4   90    7  43.0  37.9 1026.4 -9.9 -9.999 -99.9 -99.99 -9.99
2020/01/24 18:00 EST    0.05   0.32    4   69    6  42.6  37.9 1026.4 -9.9 -9.999 -99.9 -99.99 -9.99
2020/01/24 18:06 EST    0.14   0.42    3   60    5  42.4  37.9 1026.4 -9.9 -9.999 -99.9 -99.99 -9.99
2020/01/24 18:12 EST    0.24   0.55    1   56    5  42.3  37.9 1026.6 -9.9 -9.999 -99.9 -99.99 -9.99
2020/01/24 18:18 EST    0.34   0.69    0   36    4  42.3  37.9 1026.8 -9.9 -9.999 -99.9 -99.99 -9.99
2020/01/24 18:24 EST    0.44   0.83    1   42    3  42.1  37.9 1026.9 -9.9 -9.999 -99.9 -99.99 -9.99
2020/01/24 18:30 EST    0.55   0.98    1   64    2  42.1  37.9 1027.0 -9.9 -9.999 -99.9 -99.99 -9.99
2020/01/24 18:36 EST    0.67   1.11    1   91    3  42.3  38.1 1027.1 -9.9 -9.999 -99.9 -99.99 -9.99
2020/01/24 18:42 EST    0.79   1.23    0   90    2  42.3  38.1 1027.1 -9.9 -9.999 -99.9 -99.99 -9.99
2020/01/24 18:48 EST    0.91   1.34    0   96    2  42.1  38.1 1027.2 -9.9 -9.999 -99.9 -99.99 -9.99
2020/01/24 18:54 EST    1.04   1.44    1   60    2  41.9  38.1 1027.2 -9.9 -9.999 -99.9 -99.99 -9.99
2020/01/24 19:00 EST    1.16   1.55    2   62    3  41.7  38.3 1027.3 -9.9 -9.999 -99.9 -99.99 -9.99
2020/01/24 19:06 EST    1.30   1.67    2   63    3  41.7  38.1 1027.3 -9.9 -9.999 -99.9 -99.99 -9.99
2020/01/24 19:12 EST    1.43   1.81    1   54    3  41.7  38.1 1027.3 -9.9 -9.999 -99.9 -99.99 -9.99
2020/01/24 19:18 EST    1.56   1.97    2   66    3  41.7  38.1 1027.3 -9.9 -9.999 -99.9 -99.99 -9.99
2020/01/24 19:24 EST    1.70   2.14    2   64    3  41.9  38.1 1027.3 -9.9 -9.999 -99.9 -99.99 -9.99
2020/01/24 19:30 EST    1.84   2.33    2   68    3  41.9  38.1 1027.4 -9.9 -9.999 -99.9 -99.99 -9.99
2020/01/24 19:36 EST    1.98   2.52    1   61    4  41.5  38.1 1027.5 -9.9 -9.999 -99.9 -99.99 -9.99
2020/01/24 19:42 EST    2.12   2.71    1   40    2  41.2  37.9 1027.5 -9.9 -9.999 -99.9 -99.99 -9.99
2020/01/24 19:48 EST    2.27   2.88    0   38    2  40.8  37.9 1027.5 -9.9 -9.999 -99.9 -99.99 -9.99
2020/01/24 19:54 EST    2.41   3.05    2   70    3  41.0  37.9 1027.4 -9.9 -9.999 -99.9 -99.99 -9.99
2020/01/24 20:00 EST    2.56   3.21    3   71    4  41.4  38.1 1027.4 -9.9 -9.999 -99.9 -99.99 -9.99
2020/01/24 20:06 EST    2.70   3.35    2   65    5  41.0  38.1 1027.3 -9.9 -9.999 -99.9 -99.99 -9.99
2020/01/24 20:12 EST    2.85   3.47    2   66    4  40.6  38.1 1027.2 -9.9 -9.999 -99.9 -99.99 -9.99
2020/01/24 20:18 EST    3.00   3.59    4   70    6  41.2  38.1 1027.1 -9.9 -9.999 -99.9 -99.99 -9.99
2020/01/24 20:24 EST    3.15   3.69    3   73    6  41.0  38.1 1027.1 -9.9 -9.999 -99.9 -99.99 -9.99
2020/01/24 20:30 EST    3.30   3.80    4   73    6  40.6  38.1 1027.1 -9.9 -9.999 -99.9 -99.99 -9.99
2020/01/24 20:36 EST    3.44   3.91    3   71    6  40.8  37.9 1027.1 -9.9 -9.999 -99.9 -99.99 -9.99
2020/01/24 20:42 EST    3.59   4.03    3   92    4  41.0  37.9 1027.2 -9.9 -9.999 -99.9 -99.99 -9.99
2020/01/24 20:48 EST    3.74   4.15    4   83    7  40.8  37.9 1027.2 -9.9 -9.999 -99.9 -99.99 -9.99
2020/01/24 20:54 EST    3.89   4.30    4   82    6  40.6  37.9 1027.2 -9.9 -9.999 -99.9 -99.99 -9.99
2020/01/24 21:00 EST    4.03   4.42    6  107    7  41.0  37.8 1027.1 -9.9 -9.999 -99.9 -99.99 -9.99
2020/01/24 21:06 EST    4.18   4.57    6  109   10  40.8  37.8 1027.2 -9.9 -9.999 -99.9 -99.99 -9.99
2020/01/24 21:12 EST    4.32   4.72    3   98    8  40.5  37.8 1027.1 -9.9 -9.999 -99.9 -99.99 -9.99
2020/01/24 21:18 EST    4.46   4.86    3   73    5  40.1  37.8 1027.1 -9.9 -9.999 -99.9 -99.99 -9.99
2020/01/24 21:24 EST    4.59   4.99    3   84    6  39.7  37.8 1027.0 -9.9 -9.999 -99.9 -99.99 -9.99
2020/01/24 21:30 EST    4.73   5.12    2   62    4  38.7  37.8 1027.0 -9.9 -9.999 -99.9 -99.99 -9.99
2020/01/24 21:36 EST    4.85   5.23    2   28    3  38.3  37.8 1027.0 -9.9 -9.999 -99.9 -99.99 -9.99
2020/01/24 21:42 EST    4.98   5.34    0    7    2  37.9  37.8 1027.0 -9.9 -9.999 -99.9 -99.99 -9.99
2020/01/24 21:48 EST    5.09   5.45    0  114    2  37.2  37.8 1027.0 -9.9 -9.999 -99.9 -99.99 -9.99
2020/01/24 21:54 EST    5.21   5.55    1   48    2  37.0  37.8 1026.8 -9.9 -9.999 -99.9 -99.99 -9.99
2020/01/24 22:00 EST    5.31   5.65    1   64    3  36.7  37.8 1026.7 -9.9 -9.999 -99.9 -99.99 -9.99
2020/01/24 22:06 EST    5.41   5.74    2   59    4  36.1  37.8 1026.6 -9.9 -9.999 -99.9 -99.99 -9.99
2020/01/24 22:12 EST    5.50   5.85    1   84    4  35.8  37.8 1026.5 -9.9 -9.999 -99.9 -99.99 -9.99
2020/01/24 22:18 EST    5.58   5.94    2   60    5  35.1  37.8 1026.4 -9.9 -9.999 -99.9 -99.99 -9.99
2020/01/24 22:24 EST    5.66   6.02    2   45    4  35.6  37.8 1026.3 -9.9 -9.999 -99.9 -99.99 -9.99
2020/01/24 22:30 EST    5.72   6.11    2   49    4  36.3  37.6 1026.3 -9.9 -9.999 -99.9 -99.99 -9.99
2020/01/24 22:36 EST    5.78   6.19    1   35    4  36.3  37.6 1026.3 -9.9 -9.999 -99.9 -99.99 -9.99
2020/01/24 22:42 EST    5.82   6.28    2   45    4  36.0  37.6 1026.3 -9.9 -9.999 -99.9 -99.99 -9.99
2020/01/24 22:48 EST    5.86   6.37    0   36    4  35.8  37.6 1026.3 -9.9 -9.999 -99.9 -99.99 -9.99
2020/01/24 22:54 EST    5.89   6.43    2   49    4  35.6  37.6 1026.2 -9.9 -9.999 -99.9 -99.99 -9.99
2020/01/24 23:00 EST    5.90   6.49    2   54    3  35.6  37.6 1026.2 -9.9 -9.999 -99.9 -99.99 -9.99
2020/01/24 23:06 EST    5.91   6.52    3   48    4  35.2  37.6 1026.0 -9.9 -9.999 -99.9 -99.99 -9.99
2020/01/24 23:12 EST    5.91   6.53    2   87    3  35.2  37.6 1026.0 -9.9 -9.999 -99.9 -99.99 -9.99
2020/01/24 23:18 EST    5.90   6.54    2   73    4  35.2  37.6 1026.1 -9.9 -9.999 -99.9 -99.99 -9.99
2020/01/24 23:24 EST    5.87   6.55    1   59    4  35.1  37.6 1025.9 -9.9 -9.999 -99.9 -99.99 -9.99
2020/01/24 23:30 EST    5.84   6.54    2   57    4  34.9  37.6 1025.9 -9.9 -9.999 -99.9 -99.99 -9.99
2020/01/24 23:36 EST    5.80   6.53    2   57    5  34.7  37.6 1025.8 -9.9 -9.999 -99.9 -99.99 -9.99
2020/01/24 23:42 EST    5.75   6.51    1   87    4  34.9  37.6 1025.8 -9.9 -9.999 -99.9 -99.99 -9.99
2020/01/24 23:48 EST    5.69   6.47    2   56    4  35.1  37.6 1025.8 -9.9 -9.999 -99.9 -99.99 -9.99
2020/01/24 23:54 EST    5.63   6.43    2   46    4  34.7  37.6 1025.7 -9.9 -9.999 -99.9 -99.99 -9.99
2020/01/25 00:00 EST    5.56   6.37    3   75    5  34.9  37.6 1025.7 -9.9 -9.999 -99.9 -99.99 -9.99
2020/01/25 00:06 EST    5.48   6.29    2   72    5  35.8  37.6 1025.8 -9.9 -9.999 -99.9 -99.99 -9.99
2020/01/25 00:12 EST    5.39   6.20    3   89    8  37.0  37.6 1025.7 -9.9 -9.999 -99.9 -99.99 -9.99
2020/01/25 00:18 EST    5.30   6.10    5   97    8  37.6  37.6 1025.8 -9.9 -9.999 -99.9 -99.99 -9.99
2020/01/25 00:24 EST    5.20   5.98    7   72   10  37.6  37.6 1025.7 -9.9 -9.999 -99.9 -99.99 -9.99
2020/01/25 00:30 EST    5.10   5.86    4   80   10  37.4  37.6 1025.4 -9.9 -9.999 -99.9 -99.99 -9.99
2020/01/25 00:36 EST    4.99   5.74    3   85    8  37.2  37.6 1025.4 -9.9 -9.999 -99.9 -99.99 -9.99
2020/01/25 00:42 EST    4.88   5.59    4   82    8  37.2  37.6 1025.4 -9.9 -9.999 -99.9 -99.99 -9.99
2020/01/25 00:48 EST    4.76   5.45    2   52    8  37.2  37.6 1025.6 -9.9 -9.999 -99.9 -99.99 -9.99
2020/01/25 00:54 EST    4.65   5.31    3   60    7  37.0  37.6 1025.6 -9.9 -9.999 -99.9 -99.99 -9.99
2020/01/25 01:00 EST    4.53   5.20    4   70    6  37.0  37.6 1025.5 -9.9 -9.999 -99.9 -99.99 -9.99
2020/01/25 01:06 EST    4.40   5.12    3   56    7  37.0  37.6 1025.4 -9.9 -9.999 -99.9 -99.99 -9.99
2020/01/25 01:12 EST    4.28   5.04    3   68    7  37.0  37.6 1025.4 -9.9 -9.999 -99.9 -99.99 -9.99
2020/01/25 01:18 EST    4.15   4.91    1   73    5  36.9  37.6 1025.4 -9.9 -9.999 -99.9 -99.99 -9.99
2020/01/25 01:24 EST    4.02   4.78    3   47    5  36.5  37.6 1025.4 -9.9 -9.999 -99.9 -99.99 -9.99
2020/01/25 01:30 EST    3.90   4.67    1   41    5  36.5  37.6 1025.5 -9.9 -9.999 -99.9 -99.99 -9.99
2020/01/25 01:36 EST    3.76   4.54    1   82    4  36.3  37.6 1025.4 -9.9 -9.999 -99.9 -99.99 -9.99
2020/01/25 01:42 EST    3.63   4.37    1   50    4  36.1  37.6 1025.4 -9.9 -9.999 -99.9 -99.99 -9.99
2020/01/25 01:48 EST    3.50   4.19    1  104    5  36.3  37.6 1025.3 -9.9 -9.999 -99.9 -99.99 -9.99
2020/01/25 01:54 EST    3.37   4.02    2   69    4  36.0  37.6 1025.1 -9.9 -9.999 -99.9 -99.99 -9.99
2020/01/25 02:00 EST    3.23   3.88    3   58    6  35.8  37.6 1025.0 -9.9 -9.999 -99.9 -99.99 -9.99
2020/01/25 02:06 EST    3.10   3.75    2   51    7  35.8  37.6 1025.1 -9.9 -9.999 -99.9 -99.99 -9.99
2020/01/25 02:12 EST    2.97   3.56    3   57    6  35.8  37.6 1025.1 -9.9 -9.999 -99.9 -99.99 -9.99
2020/01/25 02:18 EST    2.83   3.44    3   59    6  35.6  37.6 1025.1 -9.9 -9.999 -99.9 -99.99 -9.99
2020/01/25 02:24 EST    2.70   3.33    3   66    6  35.6  37.6 1024.9 -9.9 -9.999 -99.9 -99.99 -9.99
2020/01/25 02:30 EST    2.56   3.26    2   61    6  35.6  37.6 1024.8 -9.9 -9.999 -99.9 -99.99 -9.99
2020/01/25 02:36 EST    2.43   3.15    3   53    5  35.8  37.6 1024.7 -9.9 -9.999 -99.9 -99.99 -9.99
2020/01/25 02:42 EST    2.29   3.02    2   61    5  35.8  37.6 1024.5 -9.9 -9.999 -99.9 -99.99 -9.99
2020/01/25 02:48 EST    2.16   2.91    2   72    6  36.0  37.6 1024.5 -9.9 -9.999 -99.9 -99.99 -9.99
2020/01/25 02:54 EST    2.02   2.79    2   43    4  36.0  37.6 1024.5 -9.9 -9.999 -99.9 -99.99 -9.99
2020/01/25 03:00 EST    1.89   2.66    2   63    5  36.0  37.6 1024.4 -9.9 -9.999 -99.9 -99.99 -9.99
2020/01/25 03:06 EST    1.75   2.57    2   55    5  35.6  37.6 1024.3 -9.9 -9.999 -99.9 -99.99 -9.99
2020/01/25 03:12 EST    1.62   2.46    2   37    7  35.6  37.6 1024.3 -9.9 -9.999 -99.9 -99.99 -9.99
2020/01/25 03:18 EST    1.49   2.34    1   22    7  35.6  37.6 1024.2 -9.9 -9.999 -99.9 -99.99 -9.99
2020/01/25 03:24 EST    1.37   2.22    4   49    6  35.4  37.6 1023.9 -9.9 -9.999 -99.9 -99.99 -9.99
2020/01/25 03:30 EST    1.24   2.10    2   43    8  35.2  37.6 1023.8 -9.9 -9.999 -99.9 -99.99 -9.99
2020/01/25 03:36 EST    1.12   1.97    3   60    9  35.1  37.6 1023.5 -9.9 -9.999 -99.9 -99.99 -9.99
2020/01/25 03:42 EST    1.01   1.84    3   39    9  34.9  37.6 1023.4 -9.9 -9.999 -99.9 -99.99 -9.99
2020/01/25 03:48 EST    0.89   1.77    4   39    7  34.9  37.6 1023.4 -9.9 -9.999 -99.9 -99.99 -9.99
2020/01/25 03:54 EST    0.78   1.70    4   50    8  34.9  37.6 1023.4 -9.9 -9.999 -99.9 -99.99 -9.99
2020/01/25 04:00 EST    0.68   1.64    4   46    8  34.9  37.6 1023.6 -9.9 -9.999 -99.9 -99.99 -9.99
2020/01/25 04:06 EST    0.58   1.58    3   39    6  34.9  37.6 1023.5 -9.9 -9.999 -99.9 -99.99 -9.99
2020/01/25 04:12 EST    0.49   1.50    3   46    6  34.7  37.6 1023.2 -9.9 -9.999 -99.9 -99.99 -9.99
2020/01/25 04:18 EST    0.41   1.45    3   58    6  34.5  37.6 1023.3 -9.9 -9.999 -99.9 -99.99 -9.99
2020/01/25 04:24 EST    0.33   1.36    4   57    6  34.3  37.6 1023.1 -9.9 -9.999 -99.9 -99.99 -9.99
2020/01/25 04:30 EST    0.27   1.26    2   53    6  34.3  37.6 1023.0 -9.9 -9.999 -99.9 -99.99 -9.99
2020/01/25 04:36 EST    0.21   1.21    1   15    5  34.5  37.6 1023.0 -9.9 -9.999 -99.9 -99.99 -9.99
2020/01/25 04:42 EST    0.15   1.16    1   92    4  34.7  37.6 1023.0 -9.9 -9.999 -99.9 -99.99 -9.99
2020/01/25 04:48 EST    0.11   1.12    2   77    4  34.9  37.6 1023.1 -9.9 -9.999 -99.9 -99.99 -9.99
2020/01/25 04:54 EST    0.08   1.07    1   46    4  34.9  37.6 1023.0 -9.9 -9.999 -99.9 -99.99 -9.99
2020/01/25 05:00 EST    0.06   1.03    2   73    4  35.1  37.6 1022.9 -9.9 -9.999 -99.9 -99.99 -9.99
2020/01/25 05:06 EST    0.05   1.03    1   67    5  35.2  37.6 1022.9 -9.9 -9.999 -99.9 -99.99 -9.99
2020/01/25 05:12 EST    0.04   1.01    3   57    5  35.2  37.6 1022.8 -9.9 -9.999 -99.9 -99.99 -9.99
2020/01/25 05:18 EST    0.05   0.95    3   49    7  35.4  37.4 1022.6 -9.9 -9.999 -99.9 -99.99 -9.99
2020/01/25 05:24 EST    0.07   0.94    3   51    9  35.6  37.4 1022.4 -9.9 -9.999 -99.9 -99.99 -9.99
2020/01/25 05:30 EST    0.09   0.92    3   45    8  35.8  37.4 1022.3 -9.9 -9.999 -99.9 -99.99 -9.99
2020/01/25 05:36 EST    0.13   0.92    3   34   10  36.1  37.4 1022.0 -9.9 -9.999 -99.9 -99.99 -9.99
2020/01/25 05:42 EST    0.18   0.93    4   37    8  36.1  37.4 1022.0 -9.9 -9.999 -99.9 -99.99 -9.99
2020/01/25 05:48 EST    0.23   0.96    4   43    9  36.3  37.4 1021.9 -9.9 -9.999 -99.9 -99.99 -9.99
2020/01/25 05:54 EST    0.30   1.02    3   39    6  36.5  37.4 1021.8 -9.9 -9.999 -99.9 -99.99 -9.99
2020/01/25 06:00 EST    0.37   1.10    5   45    9  36.3  37.4 1021.7 -9.9 -9.999 -99.9 -99.99 -9.99
2020/01/25 06:06 EST    0.45   1.21    4   48    8  36.5  37.4 1021.6 -9.9 -9.999 -99.9 -99.99 -9.99
2020/01/25 06:12 EST    0.54   1.36    2   55   10  36.7  37.4 1021.6 -9.9 -9.999 -99.9 -99.99 -9.99
2020/01/25 06:18 EST    0.63   1.48    3   43    7  36.7  37.4 1021.6 -9.9 -9.999 -99.9 -99.99 -9.99
2020/01/25 06:24 EST    0.74   1.61    5   43   13  36.9  37.4 1021.4 -9.9 -9.999 -99.9 -99.99 -9.99
2020/01/25 06:30 EST    0.85   1.72    4   46    9  37.0  37.4 1021.4 -9.9 -9.999 -99.9 -99.99 -9.99
2020/01/25 06:36 EST    0.96   1.83    5   49    8  37.0  37.6 1021.3 -9.9 -9.999 -99.9 -99.99 -9.99
2020/01/25 06:42 EST    1.08   1.96    4   39   11  37.2  37.6 1021.3 -9.9 -9.999 -99.9 -99.99 -9.99
2020/01/25 06:48 EST    1.20   2.07    4   43   10  37.4  37.6 1021.4 -9.9 -9.999 -99.9 -99.99 -9.99
2020/01/25 06:54 EST    1.33   2.18    4   33    8  37.4  37.6 1021.3 -9.9 -9.999 -99.9 -99.99 -9.99
2020/01/25 07:00 EST    1.46   2.33    4   66   10  37.6  37.4 1021.7 -9.9 -9.999 -99.9 -99.99 -9.99
2020/01/25 07:06 EST    1.60   2.48    4   59    9  37.6  37.6 1021.7 -9.9 -9.999 -99.9 -99.99 -9.99
2020/01/25 07:12 EST    1.73   2.63    3   67    7  37.8  37.6 1021.7 -9.9 -9.999 -99.9 -99.99 -9.99
2020/01/25 07:18 EST    1.87   2.79    3   47    7  37.8  37.6 1021.4 -9.9 -9.999 -99.9 -99.99 -9.99
2020/01/25 07:24 EST    2.01   2.98    3   45    7  37.9  37.6 1021.1 -9.9 -9.999 -99.9 -99.99 -9.99
2020/01/25 07:30 EST    2.16   3.16    4   64   10  37.9  37.6 1021.1 -9.9 -9.999 -99.9 -99.99 -9.99
2020/01/25 07:36 EST    2.30   3.32    3   62    8  38.1  37.6 1021.2 -9.9 -9.999 -99.9 -99.99 -9.99
2020/01/25 07:42 EST    2.45   3.51    2   47    7  38.1  37.6 1021.1 -9.9 -9.999 -99.9 -99.99 -9.99
2020/01/25 07:48 EST    2.59   3.68    3   67    6  38.3  37.6 1021.3 -9.9 -9.999 -99.9 -99.99 -9.99
2020/01/25 07:54 EST    2.74   3.82    2   70    7  38.5  37.6 1021.3 -9.9 -9.999 -99.9 -99.99 -9.99
2020/01/25 08:00 EST    2.89   3.97    2   87    6  38.7  37.6 1021.2 -9.9 -9.999 -99.9 -99.99 -9.99
2020/01/25 08:06 EST    3.04   4.12    3   74    7  38.7  37.6 1021.1 -9.9 -9.999 -99.9 -99.99 -9.99
2020/01/25 08:12 EST    3.19   4.28    3   63    8  38.7  37.6 1021.1 -9.9 -9.999 -99.9 -99.99 -9.99
2020/01/25 08:18 EST    3.34   4.43    3   62    7  38.8  37.6 1021.0 -9.9 -9.999 -99.9 -99.99 -9.99
2020/01/25 08:24 EST    3.49   4.59    3   76    9  38.8  37.6 1021.0 -9.9 -9.999 -99.9 -99.99 -9.99
2020/01/25 08:30 EST    3.63   4.76    3   55    8  38.8  37.6 1020.8 -9.9 -9.999 -99.9 -99.99 -9.99
2020/01/25 08:36 EST    3.78   4.93    2   78    8  38.8  37.4 1020.8 -9.9 -9.999 -99.9 -99.99 -9.99
2020/01/25 08:42 EST    3.93   5.10    3   55    6  39.0  37.4 1020.7 -9.9 -9.999 -99.9 -99.99 -9.99
2020/01/25 08:48 EST    4.08   5.25    2   63    5  39.2  37.4 1020.8 -9.9 -9.999 -99.9 -99.99 -9.99
2020/01/25 08:54 EST    4.23   5.43    3   65    6  39.2  37.4 1020.8 -9.9 -9.999 -99.9 -99.99 -9.99
2020/01/25 09:00 EST    4.37   5.58    2   69    6  39.4  37.6 1020.8 -9.9 -9.999 -99.9 -99.99 -9.99
2020/01/25 09:06 EST    4.52   5.75    2   42    5  39.6  37.6 1020.8 -9.9 -9.999 -99.9 -99.99 -9.99
2020/01/25 09:12 EST    4.66   5.86    2   72    4  39.7  37.6 1020.5 -9.9 -9.999 -99.9 -99.99 -9.99
2020/01/25 09:18 EST    4.81   5.97    3   55    6  39.7  37.6 1020.3 -9.9 -9.999 -99.9 -99.99 -9.99
2020/01/25 09:24 EST    4.95   6.10    3   71    5  39.9  37.4 1020.2 -9.9 -9.999 -99.9 -99.99 -9.99
2020/01/25 09:30 EST    5.08   6.19    2   62    5  40.1  37.4 1020.1 -9.9 -9.999 -99.9 -99.99 -9.99
2020/01/25 09:36 EST    5.22   6.31    1  143    5  40.3  37.4 1020.0 -9.9 -9.999 -99.9 -99.99 -9.99
2020/01/25 09:42 EST    5.35   6.46    2   46    5  40.5  37.4 1019.9 -9.9 -9.999 -99.9 -99.99 -9.99
2020/01/25 09:48 EST    5.48   6.59    1   99    4  39.9  37.4 1019.7 -9.9 -9.999 -99.9 -99.99 -9.99
2020/01/25 09:54 EST    5.60   6.73    2   67    4  40.5  37.4 1019.7 -9.9 -9.999 -99.9 -99.99 -9.99
2020/01/25 10:00 EST    5.72   6.87    4   95    6  41.7  37.4 1019.5 -9.9 -9.999 -99.9 -99.99 -9.99
2020/01/25 10:06 EST    5.83   7.01    3   80    6  41.7  37.4 1019.5 -9.9 -9.999 -99.9 -99.99 -9.99
2020/01/25 10:12 EST    5.94   7.13    3   60    6  41.7  37.4 1019.3 -9.9 -9.999 -99.9 -99.99 -9.99
2020/01/25 10:18 EST    6.04   7.25    2   71    7  41.9  37.4 1019.1 -9.9 -9.999 -99.9 -99.99 -9.99
2020/01/25 10:24 EST    6.13   7.34    4   78    7  41.9  37.4 1018.9 -9.9 -9.999 -99.9 -99.99 -9.99
2020/01/25 10:30 EST    6.21   7.41    3   80    6  41.5  37.4 1018.8 -9.9 -9.999 -99.9 -99.99 -9.99
2020/01/25 10:36 EST    6.29   7.50    3   62    6  41.4  37.4 1018.7 -9.9 -9.999 -99.9 -99.99 -9.99
2020/01/25 10:42 EST    6.36   7.56    4   85    8  41.4  37.4 1018.5 -9.9 -9.999 -99.9 -99.99 -9.99
2020/01/25 10:48 EST    6.42   7.59    3   74    7  41.4  37.6 1018.3 -9.9 -9.999 -99.9 -99.99 -9.99
2020/01/25 10:54 EST    6.47   7.63    4   80    7  41.4  37.6 1018.4 -9.9 -9.999 -99.9 -99.99 -9.99
2020/01/25 11:00 EST    6.51   7.67    4   80    8  41.7  37.6 1018.1 -9.9 -9.999 -99.9 -99.99 -9.99
2020/01/25 11:06 EST    6.54   7.76    4   78    8  41.7  37.6 1017.7 -9.9 -9.999 -99.9 -99.99 -9.99
2020/01/25 11:12 EST    6.56   7.86    3   85    8  42.1  37.6 1017.7 -9.9 -9.999 -99.9 -99.99 -9.99
2020/01/25 11:18 EST    6.57   7.92    3   82    8  42.1  37.6 1017.5 -9.9 -9.999 -99.9 -99.99 -9.99
2020/01/25 11:24 EST    6.58   7.93    4   88    9  42.1  37.6 1017.3 -9.9 -9.999 -99.9 -99.99 -9.99
2020/01/25 11:30 EST    6.57   7.96    5   82    9  42.1  37.6 1017.2 -9.9 -9.999 -99.9 -99.99 -9.99
2020/01/25 11:36 EST    6.55   7.99    3  108    8  42.3  37.6 1017.1 -9.9 -9.999 -99.9 -99.99 -9.99
2020/01/25 11:42 EST    6.52   7.99    5   75    8  42.4  37.6 1016.7 -9.9 -9.999 -99.9 -99.99 -9.99
2020/01/25 11:48 EST    6.48   7.96    4  108   10  42.4  37.6 1016.6 -9.9 -9.999 -99.9 -99.99 -9.99
2020/01/25 11:54 EST    6.43   7.91    5   87   11  42.4  37.8 1016.5 -9.9 -9.999 -99.9 -99.99 -9.99
2020/01/25 12:00 EST    6.37   7.86    4   82    7  42.6  37.8 1016.4 -9.9 -9.999 -99.9 -99.99 -9.99
2020/01/25 12:06 EST    6.30   7.82    4   93   13  42.8  37.8 1016.2 -9.9 -9.999 -99.9 -99.99 -9.99
2020/01/25 12:12 EST    6.23   7.76    4  119    8  43.2  37.8 1016.0 -9.9 -9.999 -99.9 -99.99 -9.99
2020/01/25 12:18 EST    6.14   7.70    5   97   14  43.7  37.8 1015.9 -9.9 -9.999 -99.9 -99.99 -9.99
2020/01/25 12:24 EST    6.05   7.63    7  110   11  43.9  37.9 1015.8 -9.9 -9.999 -99.9 -99.99 -9.99
2020/01/25 12:30 EST    5.95   7.55    4   95   12  43.9  37.9 1015.5 -9.9 -9.999 -99.9 -99.99 -9.99
2020/01/25 12:36 EST    5.84   7.44    9   98   13  44.2  37.9 1015.1 -9.9 -9.999 -99.9 -99.99 -9.99
2020/01/25 12:42 EST    5.73   7.32   10  108   17  44.2  37.9 1014.6 -9.9 -9.999 -99.9 -99.99 -9.99
2020/01/25 12:48 EST    5.62   7.18    9  101   18  44.4  37.9 1014.2 -9.9 -9.999 -99.9 -99.99 -9.99
2020/01/25 12:54 EST    5.49   7.06   12  106   18  44.6  37.9 1013.8 -9.9 -9.999 -99.9 -99.99 -9.99
2020/01/25 13:00 EST    5.37   6.92   11   99   17  44.8  37.9 1013.6 -9.9 -9.999 -99.9 -99.99 -9.99
2020/01/25 13:06 EST    5.24   6.78   14  103   20  45.1  37.9 1013.3 -9.9 -9.999 -99.9 -99.99 -9.99
2020/01/25 13:12 EST    5.10   6.66   11  109   20  45.3  37.9 1013.1 -9.9 -9.999 -99.9 -99.99 -9.99
2020/01/25 13:18 EST    4.97   6.52   12  103   23  45.3  37.9 1012.9 -9.9 -9.999 -99.9 -99.99 -9.99
2020/01/25 13:24 EST    4.83   6.39   12  106   17  45.5  37.9 1012.5 -9.9 -9.999 -99.9 -99.99 -9.99
2020/01/25 13:30 EST    4.68   6.33   11  108   23  45.7  37.9 1012.3 -9.9 -9.999 -99.9 -99.99 -9.99
2020/01/25 13:36 EST    4.54   6.24   14  104   23  45.9  37.9 1012.3 -9.9 -9.999 -99.9 -99.99 -9.99
2020/01/25 13:42 EST    4.40   6.08   17  110   24  46.0  37.9 1011.9 -9.9 -9.999 -99.9 -99.99 -9.99
2020/01/25 13:48 EST    4.25   5.92   14  109   21  46.2  37.9 1012.0 -9.9 -9.999 -99.9 -99.99 -9.99
2020/01/25 13:54 EST    4.10   5.76   13  118   26  46.0  37.9 1012.0 -9.9 -9.999 -99.9 -99.99 -9.99
2020/01/25 14:00 EST    3.95   5.64   13  107   22  46.0  37.9 1011.7 -9.9 -9.999 -99.9 -99.99 -9.99
2020/01/25 14:06 EST    3.80   5.51   14  111   24  46.0  37.9 1011.4 -9.9 -9.999 -99.9 -99.99 -9.99
2020/01/25 14:12 EST    3.65   5.34   16  110   24  46.2  37.9 1011.1 -9.9 -9.999 -99.9 -99.99 -9.99
2020/01/25 14:18 EST    3.50   5.16   14  109   27  46.4  37.9 1011.0 -9.9 -9.999 -99.9 -99.99 -9.99
2020/01/25 14:24 EST    3.35   4.97   13  111   21  46.6  37.9 1010.7 -9.9 -9.999 -99.9 -99.99 -9.99
2020/01/25 14:30 EST    3.20   4.83   13  116   24  46.9  37.9 1010.6 -9.9 -9.999 -99.9 -99.99 -9.99
2020/01/25 14:36 EST    3.05   4.72   13  110   28  46.9  37.9 1010.6 -9.9 -9.999 -99.9 -99.99 -9.99
2020/01/25 14:42 EST    2.89   4.62   14  119   23  47.1  37.9 1010.5 -9.9 -9.999 -99.9 -99.99 -9.99
2020/01/25 14:48 EST    2.74   4.49   16  126   29  47.1  37.9 1010.5 -9.9 -9.999 -99.9 -99.99 -9.99
2020/01/25 14:54 EST    2.59   4.37   19  119   30  46.8  37.9 1010.0 -9.9 -9.999 -99.9 -99.99 -9.99
2020/01/25 15:00 EST    2.44   4.23   17  123   28  46.9  37.9 1009.9 -9.9 -9.999 -99.9 -99.99 -9.99
2020/01/25 15:06 EST    2.29   4.08   13  115   32  46.8  37.9 1009.8 -9.9 -9.999 -99.9 -99.99 -9.99
2020/01/25 15:12 EST    2.13   3.98   16  111   29  46.8  37.9 1009.5 -9.9 -9.999 -99.9 -99.99 -9.99
2020/01/25 15:18 EST    1.98   3.86   19  110   29  46.6  37.9 1009.3 -9.9 -9.999 -99.9 -99.99 -9.99
2020/01/25 15:24 EST    1.84   3.74   18  115   29  46.4  37.9 1009.0 -9.9 -9.999 -99.9 -99.99 -9.99
2020/01/25 15:30 EST    1.69   3.59   18  114   29  46.4  37.9 1008.8 -9.9 -9.999 -99.9 -99.99 -9.99
2020/01/25 15:36 EST    1.54   3.43   17  114   28  46.2  37.9 1008.9 -9.9 -9.999 -99.9 -99.99 -9.99
2020/01/25 15:42 EST    1.40   3.31   18  124   27  46.2  37.9 1008.8 -9.9 -9.999 -99.9 -99.99 -9.99
2020/01/25 15:48 EST    1.25   3.19   16  125   27  46.0  37.9 1008.8 -9.9 -9.999 -99.9 -99.99 -9.99
2020/01/25 15:54 EST    1.11   3.08   14  123   26  46.2  37.9 1008.8 -9.9 -9.999 -99.9 -99.99 -9.99
2020/01/25 16:00 EST    0.98   3.00   17  118   28  46.6  37.9 1008.6 -9.9 -9.999 -99.9 -99.99 -9.99
2020/01/25 16:06 EST    0.85   2.91   17  118   28  46.6  37.9 1008.4 -9.9 -9.999 -99.9 -99.99 -9.99
2020/01/25 16:12 EST    0.72   2.81   12  122   23  46.8  37.9 1008.2 -9.9 -9.999 -99.9 -99.99 -9.99
2020/01/25 16:18 EST    0.60   2.65   15  120   29  46.9  37.9 1007.7 -9.9 -9.999 -99.9 -99.99 -9.99
2020/01/25 16:24 EST    0.48   2.47   19  120   30  46.9  37.9 1007.8 -9.9 -9.999 -99.9 -99.99 -9.99
2020/01/25 16:30 EST    0.37   2.29   19  117   24  46.9  37.9 1007.5 -9.9 -9.999 -99.9 -99.99 -9.99
2020/01/25 16:36 EST    0.26   2.14   18  122   28  46.6  37.9 1007.4 -9.9 -9.999 -99.9 -99.99 -9.99
2020/01/25 16:42 EST    0.16   2.06   14  120   29  46.4  37.9 1007.5 -9.9 -9.999 -99.9 -99.99 -9.99
2020/01/25 16:48 EST    0.07   2.01   16  122   24  46.2  37.9 1007.3 -9.9 -9.999 -99.9 -99.99 -9.99
2020/01/25 16:54 EST   -0.01   2.00   18  116   27  46.0  38.1 1007.3 -9.9 -9.999 -99.9 -99.99 -9.99
2020/01/25 17:00 EST   -0.08   2.01   12  119   25  45.9  38.1 1007.3 -9.9 -9.999 -99.9 -99.99 -9.99
2020/01/25 17:06 EST   -0.15   2.01   15  118   24  46.2  38.1 1007.1 -9.9 -9.999 -99.9 -99.99 -9.99
2020/01/25 17:12 EST   -0.20   1.98   18  114   28  46.6  37.9 1006.6 -9.9 -9.999 -99.9 -99.99 -9.99
2020/01/25 17:18 EST   -0.25   1.90   13  114   27  46.8  37.9 1006.6 -9.9 -9.999 -99.9 -99.99 -9.99
2020/01/25 17:24 EST   -0.29   1.86   15  114   27  46.6  37.9 1006.5 -9.9 -9.999 -99.9 -99.99 -9.99
2020/01/25 17:30 EST   -0.31   1.83   13  115   20  46.9  37.9 1006.0 -9.9 -9.999 -99.9 -99.99 -9.99
2020/01/25 17:36 EST   -0.33   1.78   12  110   19  46.9  37.9 1005.6 -9.9 -9.999 -99.9 -99.99 -9.99
2020/01/25 17:42 EST   -0.33   1.74   16  121   26  47.1  37.9 1005.9 -9.9 -9.999 -99.9 -99.99 -9.99
2020/01/25 17:48 EST   -0.33   1.72   13  113   21  46.9  37.9 1005.9 -9.9 -9.999 -99.9 -99.99 -9.99
2020/01/25 17:54 EST   -0.32   1.77   10  118   21  46.9  37.9 1006.1 -9.9 -9.999 -99.9 -99.99 -9.99
2020/01/25 18:00 EST   -0.29   1.93    3   11   16  46.9  37.9 1007.3 -9.9 -9.999 -99.9 -99.99 -9.99
2020/01/25 18:06 EST   -0.26   2.24   12  251   18  45.5  37.9 1007.9 -9.9 -9.999 -99.9 -99.99 -9.99
2020/01/25 18:12 EST   -0.21   2.28   20  114   31  46.6  38.1 1005.9 -9.9 -9.999 -99.9 -99.99 -9.99
2020/01/25 18:18 EST   -0.16   2.04    9  119   24  47.8  38.1 1006.8 -9.9 -9.999 -99.9 -99.99 -9.99
2020/01/25 18:24 EST   -0.10   1.83   11  164   14  46.6  38.1 1007.4 -9.9 -9.999 -99.9 -99.99 -9.99
2020/01/25 18:30 EST   -0.03   1.70    9  140   15  46.6  38.1 1007.1 -9.9 -9.999 -99.9 -99.99 -9.99
2020/01/25 18:36 EST    0.05   1.69    7  122   13  46.4  38.1 1006.7 -9.9 -9.999 -99.9 -99.99 -9.99
2020/01/25 18:42 EST    0.13   1.76    7  132   14  46.4  38.1 1006.8 -9.9 -9.999 -99.9 -99.99 -9.99
2020/01/25 18:48 EST    0.22   1.87    8  117   11  46.4  38.1 1006.4 -9.9 -9.999 -99.9 -99.99 -9.99
2020/01/25 18:54 EST    0.32   2.10    9  117   13  46.6  38.1 1006.3 -9.9 -9.999 -99.9 -99.99 -9.99
2020/01/25 19:00 EST    0.42   2.35    4  118   13  46.8  38.1 1006.4 -9.9 -9.999 -99.9 -99.99 -9.99
2020/01/25 19:06 EST    0.53   2.55    2  118    7  46.8  38.1 1006.5 -9.9 -9.999 -99.9 -99.99 -9.99
2020/01/25 19:12 EST    0.65   2.78    2  155    3  47.1  38.1 1006.6 -9.9 -9.999 -99.9 -99.99 -9.99
2020/01/25 19:18 EST    0.77   2.97    2  189    3  47.3  38.1 1006.5 -9.9 -9.999 -99.9 -99.99 -9.99
2020/01/25 19:24 EST    0.89   3.11    3  116    4  47.3  38.3 1006.4 -9.9 -9.999 -99.9 -99.99 -9.99
2020/01/25 19:30 EST    1.01   3.23    5  107    7  47.3  38.5 1006.4 -9.9 -9.999 -99.9 -99.99 -9.99
2020/01/25 19:36 EST    1.14   3.37    4  111    7  47.1  38.7 1006.3 -9.9 -9.999 -99.9 -99.99 -9.99
2020/01/25 19:42 EST    1.27   3.44    5  127    8  46.9  38.7 1006.2 -9.9 -9.999 -99.9 -99.99 -9.99
2020/01/25 19:48 EST    1.41   3.42    6  111    8  46.8  38.8 1006.1 -9.9 -9.999 -99.9 -99.99 -9.99
2020/01/25 19:54 EST    1.54   3.40    3  140    6  46.9  38.7 1006.0 -9.9 -9.999 -99.9 -99.99 -9.99
2020/01/25 20:00 EST    1.68   3.49    4  163    7  47.5  38.7 1006.0 -9.9 -9.999 -99.9 -99.99 -9.99
2020/01/25 20:06 EST    1.82   3.68    3  179    6  46.9  38.7 1006.0 -9.9 -9.999 -99.9 -99.99 -9.99
2020/01/25 20:12 EST    1.96   3.88    4  225    6  46.4  38.7 1006.0 -9.9 -9.999 -99.9 -99.99 -9.99
2020/01/25 20:18 EST    2.10   4.08    4  230    5  45.5  38.8 1006.0 -9.9 -9.999 -99.9 -99.99 -9.99
2020/01/25 20:24 EST    2.24   4.26    3  239    4  43.9  38.8 1006.0 -9.9 -9.999 -99.9 -99.99 -9.99
2020/01/25 20:30 EST    2.39   4.39    3  226    4  44.2  39.0 1006.1 -9.9 -9.999 -99.9 -99.99 -9.99
2020/01/25 20:36 EST    2.53   4.52    2  225    3  44.2  39.0 1006.2 -9.9 -9.999 -99.9 -99.99 -9.99
2020/01/25 20:42 EST    2.68   4.68    2  234    2  44.2  38.8 1006.1 -9.9 -9.999 -99.9 -99.99 -9.99
2020/01/25 20:48 EST    2.82   4.82    1  196    2  44.4  38.8 1006.1 -9.9 -9.999 -99.9 -99.99 -9.99
2020/01/25 20:54 EST    2.96   4.91    1  151    1  44.2  38.7 1006.1 -9.9 -9.999 -99.9 -99.99 -9.99
2020/01/25 21:00 EST    3.11   4.99    3  158    4  43.9  38.7 1006.1 -9.9 -9.999 -99.9 -99.99 -9.99
2020/01/25 21:06 EST    3.25   5.08    3  165    3  43.9  38.5 1006.2 -9.9 -9.999 -99.9 -99.99 -9.99
2020/01/25 21:12 EST    3.40   5.22    2  177    3  44.1  38.5 1006.3 -9.9 -9.999 -99.9 -99.99 -9.99
2020/01/25 21:18 EST    3.54   5.37    3  176    3  44.1  38.5 1006.3 -9.9 -9.999 -99.9 -99.99 -9.99
2020/01/25 21:24 EST    3.69   5.52    3  168    4  43.9  38.3 1006.1 -9.9 -9.999 -99.9 -99.99 -9.99
2020/01/25 21:30 EST    3.83   5.65    3  157    4  44.1  38.3 1006.0 -9.9 -9.999 -99.9 -99.99 -9.99
2020/01/25 21:36 EST    3.97   5.78    2  168    3  43.9  38.3 1006.1 -9.9 -9.999 -99.9 -99.99 -9.99
2020/01/25 21:42 EST    4.11   5.92    3  174    3  43.3  38.5 1006.0 -9.9 -9.999 -99.9 -99.99 -9.99
2020/01/25 21:48 EST    4.25   6.04    4  175    4  43.0  38.5 1006.0 -9.9 -9.999 -99.9 -99.99 -9.99
2020/01/25 21:54 EST    4.38   6.16    5  196    5  43.0  38.5 1006.1 -9.9 -9.999 -99.9 -99.99 -9.99
2020/01/25 22:00 EST    4.52   6.27    4  190    5  42.4  38.5 1006.2 -9.9 -9.999 -99.9 -99.99 -9.99
2020/01/25 22:06 EST    4.65   6.35    5  223    7  42.8  38.5 1006.2 -9.9 -9.999 -99.9 -99.99 -9.99
2020/01/25 22:12 EST    4.78   6.41    7  230    8  42.6  38.5 1006.3 -9.9 -9.999 -99.9 -99.99 -9.99
2020/01/25 22:18 EST    4.90   6.46    8  231    9  42.6  38.5 1006.4 -9.9 -9.999 -99.9 -99.99 -9.99
2020/01/25 22:24 EST    5.02   6.55    9  226   10  41.9  38.5 1006.4 -9.9 -9.999 -99.9 -99.99 -9.99
2020/01/25 22:30 EST    5.13   6.64    8  224    9  41.4  38.3 1006.4 -9.9 -9.999 -99.9 -99.99 -9.99
2020/01/25 22:36 EST    5.24   6.72    7  219    9  41.0  38.3 1006.5 -9.9 -9.999 -99.9 -99.99 -9.99
2020/01/25 22:42 EST    5.34   6.81    7  223    8  41.2  38.3 1006.4 -9.9 -9.999 -99.9 -99.99 -9.99
2020/01/25 22:48 EST    5.44   6.91    7  232    8  41.4  38.3 1006.3 -9.9 -9.999 -99.9 -99.99 -9.99
2020/01/25 22:54 EST    5.53   7.02    5  243    8  42.1  38.3 1006.2 -9.9 -9.999 -99.9 -99.99 -9.99
2020/01/25 23:00 EST    5.61   7.10    3  246    5  42.6  38.3 1006.1 -9.9 -9.999 -99.9 -99.99 -9.99
2020/01/25 23:06 EST    5.68   7.17    2  242    3  43.2  38.3 1006.1 -9.9 -9.999 -99.9 -99.99 -9.99
2020/01/25 23:12 EST    5.75   7.22    3  211    4  42.3  38.3 1006.2 -9.9 -9.999 -99.9 -99.99 -9.99
2020/01/25 23:18 EST    5.80   7.26    5  220    6  40.6  38.3 1006.3 -9.9 -9.999 -99.9 -99.99 -9.99
2020/01/25 23:24 EST    5.85   7.28    5  250    6  41.7  38.3 1006.4 -9.9 -9.999 -99.9 -99.99 -9.99
2020/01/25 23:30 EST    5.88   7.31    7  285   10  43.9  38.3 1006.4 -9.9 -9.999 -99.9 -99.99 -9.99
2020/01/25 23:36 EST    5.91   7.32    8  293   12  43.5  38.3 1006.5 -9.9 -9.999 -99.9 -99.99 -9.99
2020/01/25 23:42 EST    5.93   7.32   10  302   13  43.3  38.3 1006.5 -9.9 -9.999 -99.9 -99.99 -9.99
2020/01/25 23:48 EST    5.94   7.32    9  306   14  43.0  38.3 1006.5 -9.9 -9.999 -99.9 -99.99 -9.99
2020/01/25 23:54 EST    5.93   7.30    7  297   12  42.8  38.3 1006.6 -9.9 -9.999 -99.9 -99.99 -9.99
2020/01/26 00:00 EST    5.92   7.26    7  293    9  42.8  38.3 1006.6 -9.9 -9.999 -99.9 -99.99 -9.99
2020/01/26 00:06 EST    5.90   7.22    8  286    9  42.6  38.3 1006.6 -9.9 -9.999 -99.9 -99.99 -9.99
2020/01/26 00:12 EST    5.87   7.21    7  289    9  42.3  38.3 1006.6 -9.9 -9.999 -99.9 -99.99 -9.99
2020/01/26 00:18 EST    5.83   7.17    8  297    9  42.1  38.3 1006.5 -9.9 -9.999 -99.9 -99.99 -9.99
2020/01/26 00:24 EST    5.78   7.11    8  298   10  41.9  38.3 1006.4 -9.9 -9.999 -99.9 -99.99 -9.99
2020/01/26 00:30 EST    5.72   7.01    8  304    9  41.9  38.3 1006.3 -9.9 -9.999 -99.9 -99.99 -9.99
2020/01/26 00:36 EST    5.65   6.91    7  308   10  41.7  38.3 1006.2 -9.9 -9.999 -99.9 -99.99 -9.99
2020/01/26 00:42 EST    5.58   6.80    8  313   10  41.9  38.3 1006.1 -9.9 -9.999 -99.9 -99.99 -9.99
2020/01/26 00:48 EST    5.49   6.68    9  310   11  41.5  38.3 1006.1 -9.9 -9.999 -99.9 -99.99 -9.99
2020/01/26 00:54 EST    5.41   6.57    9  307   12  41.5  38.3 1006.1 -9.9 -9.999 -99.9 -99.99 -9.99
2020/01/26 01:00 EST    5.31   6.47    8  318   13  41.5  38.3 1006.1 -9.9 -9.999 -99.9 -99.99 -9.99
2020/01/26 01:06 EST    5.21   6.36    7  319   10  41.5  38.3 1006.1 -9.9 -9.999 -99.9 -99.99 -9.99
2020/01/26 01:12 EST    5.10   6.24    7  322    9  41.5  38.3 1006.3 -9.9 -9.999 -99.9 -99.99 -9.99
2020/01/26 01:18 EST    4.99   6.14    3  294    6  41.2  38.3 1006.6 -9.9 -9.999 -99.9 -99.99 -9.99
2020/01/26 01:24 EST    4.88   6.04    4  286    7  41.2  38.3 1006.6 -9.9 -9.999 -99.9 -99.99 -9.99
2020/01/26 01:30 EST    4.76   5.94    4  285    5  41.4  38.3 1006.5 -9.9 -9.999 -99.9 -99.99 -9.99
2020/01/26 01:36 EST    4.64   5.80    4  283    6  41.2  38.3 1006.5 -9.9 -9.999 -99.9 -99.99 -9.99
2020/01/26 01:42 EST    4.51   5.64    6  295    8  41.2  38.3 1006.6 -9.9 -9.999 -99.9 -99.99 -9.99
2020/01/26 01:48 EST    4.39   5.45    6  295    8  41.2  38.3 1006.6 -9.9 -9.999 -99.9 -99.99 -9.99
2020/01/26 01:54 EST    4.26   5.26    8  299   11  41.2  38.3 1006.6 -9.9 -9.999 -99.9 -99.99 -9.99
2020/01/26 02:00 EST    4.13   5.09    7  291    9  41.0  38.3 1006.6 -9.9 -9.999 -99.9 -99.99 -9.99
2020/01/26 02:06 EST    4.00   4.94    6  292    8  41.0  38.3 1006.6 -9.9 -9.999 -99.9 -99.99 -9.99
2020/01/26 02:12 EST    3.87   4.80    6  288    7  41.0  38.3 1006.5 -9.9 -9.999 -99.9 -99.99 -9.99
2020/01/26 02:18 EST    3.73   4.64    5  289    7  41.0  38.5 1006.6 -9.9 -9.999 -99.9 -99.99 -9.99
2020/01/26 02:24 EST    3.60   4.49    5  295    5  41.0  38.5 1006.8 -9.9 -9.999 -99.9 -99.99 -9.99
2020/01/26 02:30 EST    3.47   4.34    4  308    5  41.4  38.5 1006.8 -9.9 -9.999 -99.9 -99.99 -9.99
2020/01/26 02:36 EST    3.33   4.20    4  314    6  41.9  38.5 1006.7 -9.9 -9.999 -99.9 -99.99 -9.99
2020/01/26 02:42 EST    3.20   4.08    3  305    4  41.7  38.3 1006.8 -9.9 -9.999 -99.9 -99.99 -9.99
2020/01/26 02:48 EST    3.07   3.94    4  301    4  41.5  38.3 1006.9 -9.9 -9.999 -99.9 -99.99 -9.99
2020/01/26 02:54 EST    2.93   3.78    4  290   10  41.7  38.5 1006.9 -9.9 -9.999 -99.9 -99.99 -9.99
2020/01/26 03:00 EST    2.80   3.61    4  297    5  41.7  38.5 1006.9 -9.9 -9.999 -99.9 -99.99 -9.99
2020/01/26 03:06 EST    2.67   3.45    3  292    4  41.5  38.5 1006.9 -9.9 -9.999 -99.9 -99.99 -9.99
2020/01/26 03:12 EST    2.53   3.32    6  304    8  41.5  38.5 1006.8 -9.9 -9.999 -99.9 -99.99 -9.99
2020/01/26 03:18 EST    2.40   3.17    9  334   10  41.9  38.5 1006.7 -9.9 -9.999 -99.9 -99.99 -9.99
2020/01/26 03:24 EST    2.27   3.01   11  334   16  41.9  38.5 1006.5 -9.9 -9.999 -99.9 -99.99 -9.99
2020/01/26 03:30 EST    2.14   2.84   11  326   14  41.9  38.5 1006.5 -9.9 -9.999 -99.9 -99.99 -9.99
2020/01/26 03:36 EST    2.01   2.68   10  316   12  41.9  38.5 1006.6 -9.9 -9.999 -99.9 -99.99 -9.99
2020/01/26 03:42 EST    1.88   2.54   11  325   14  41.9  38.5 1006.6 -9.9 -9.999 -99.9 -99.99 -9.99
2020/01/26 03:48 EST    1.75   2.42    8  316   13  41.9  38.5 1006.6 -9.9 -9.999 -99.9 -99.99 -9.99
2020/01/26 03:54 EST    1.63   2.29    5  301    8  41.7  38.5 1006.8 -9.9 -9.999 -99.9 -99.99 -9.99
2020/01/26 04:00 EST    1.50   2.18    4  296    5  41.5  38.5 1006.9 -9.9 -9.999 -99.9 -99.99 -9.99
2020/01/26 04:06 EST    1.38   2.07    4  279    6  41.4  38.5 1007.1 -9.9 -9.999 -99.9 -99.99 -9.99
2020/01/26 04:12 EST    1.26   1.98    5  291    6  41.2  38.3 1007.2 -9.9 -9.999 -99.9 -99.99 -9.99
2020/01/26 04:18 EST    1.14   1.88    4  282    6  41.2  38.3 1007.2 -9.9 -9.999 -99.9 -99.99 -9.99
2020/01/26 04:24 EST    1.03   1.81    4  278    4  41.0  38.3 1007.3 -9.9 -9.999 -99.9 -99.99 -9.99
2020/01/26 04:30 EST    0.92   1.70    3  238    4  40.5  38.3 1007.3 -9.9 -9.999 -99.9 -99.99 -9.99
2020/01/26 04:36 EST    0.82   1.57    3  253    4  40.1  38.3 1007.3 -9.9 -9.999 -99.9 -99.99 -9.99
2020/01/26 04:42 EST    0.72   1.45    4  264    4  40.1  38.3 1007.4 -9.9 -9.999 -99.9 -99.99 -9.99
2020/01/26 04:48 EST    0.62   1.33    3  272    4  39.9  38.3 1007.4 -9.9 -9.999 -99.9 -99.99 -9.99
2020/01/26 04:54 EST    0.54   1.22    4  272    4  39.7  38.3 1007.3 -9.9 -9.999 -99.9 -99.99 -9.99
2020/01/26 05:00 EST    0.46   1.14    3  264    4  39.9  38.3 1007.4 -9.9 -9.999 -99.9 -99.99 -9.99
2020/01/26 05:06 EST    0.38   1.06    3  258    4  39.6  38.3 1007.4 -9.9 -9.999 -99.9 -99.99 -9.99
2020/01/26 05:12 EST    0.31   1.00    4  266    5  39.7  38.3 1007.3 -9.9 -9.999 -99.9 -99.99 -9.99
2020/01/26 05:18 EST    0.25   0.97    4  259    4  39.6  38.3 1007.4 -9.9 -9.999 -99.9 -99.99 -9.99
2020/01/26 05:24 EST    0.20   0.93    4  242    5  39.0  38.3 1007.4 -9.9 -9.999 -99.9 -99.99 -9.99
2020/01/26 05:30 EST    0.16   0.87    6  257    8  39.2  38.3 1007.5 -9.9 -9.999 -99.9 -99.99 -9.99
2020/01/26 05:36 EST    0.13   0.83    7  262    8  39.2  38.3 1007.6 -9.9 -9.999 -99.9 -99.99 -9.99
2020/01/26 05:42 EST    0.11   0.80    7  267    9  39.0  38.1 1007.6 -9.9 -9.999 -99.9 -99.99 -9.99
2020/01/26 05:48 EST    0.09   0.79    7  272    8  39.0  38.1 1007.6 -9.9 -9.999 -99.9 -99.99 -9.99
2020/01/26 05:54 EST    0.09   0.79    7  275    9  38.8  38.3 1007.7 -9.9 -9.999 -99.9 -99.99 -9.99
2020/01/26 06:00 EST    0.09   0.80    7  279    8  38.7  38.3 1007.8 -9.9 -9.999 -99.9 -99.99 -9.99
2020/01/26 06:06 EST    0.11   0.80    6  279    8  38.5  38.5 1007.7 -9.9 -9.999 -99.9 -99.99 -9.99
2020/01/26 06:12 EST    0.13   0.81    5  275    6  38.3  38.5 1007.7 -9.9 -9.999 -99.9 -99.99 -9.99
2020/01/26 06:18 EST    0.17   0.84    4  270    5  38.3  38.3 1007.7 -9.9 -9.999 -99.9 -99.99 -9.99
2020/01/26 06:24 EST    0.21   0.88    4  275    5  38.1  38.3 1007.8 -9.9 -9.999 -99.9 -99.99 -9.99
2020/01/26 06:30 EST    0.27   0.94    1  254    4  37.9  38.3 1007.8 -9.9 -9.999 -99.9 -99.99 -9.99
2020/01/26 06:36 EST    0.33   1.00    2  267    2  37.8  38.3 1008.0 -9.9 -9.999 -99.9 -99.99 -9.99
2020/01/26 06:42 EST    0.40   1.07    1  275    3  37.6  38.3 1008.1 -9.9 -9.999 -99.9 -99.99 -9.99
2020/01/26 06:48 EST    0.48   1.17    0  253    1  37.4  38.1 1008.2 -9.9 -9.999 -99.9 -99.99 -9.99
2020/01/26 06:54 EST    0.57   1.24    1  153    2  37.2  38.1 1008.2 -9.9 -9.999 -99.9 -99.99 -9.99
2020/01/26 07:00 EST    0.66   1.35    3  145    4  36.9  38.1 1008.1 -9.9 -9.999 -99.9 -99.99 -9.99
2020/01/26 07:06 EST    0.76   1.43    4  155    4  36.7  38.1 1008.1 -9.9 -9.999 -99.9 -99.99 -9.99
2020/01/26 07:12 EST    0.87   1.52    3  171    4  36.7  38.1 1008.3 -9.9 -9.999 -99.9 -99.99 -9.99
2020/01/26 07:18 EST    0.99   1.63    2  206    3  36.9  38.1 1008.4 -9.9 -9.999 -99.9 -99.99 -9.99
2020/01/26 07:24 EST    1.10   1.75    2  196    3  36.9  38.1 1008.3 -9.9 -9.999 -99.9 -99.99 -9.99
2020/01/26 07:30 EST    1.23   1.88    2  222    2  37.6  38.1 1008.3 -9.9 -9.999 -99.9 -99.99 -9.99
2020/01/26 07:36 EST    1.36   2.02    2  232    3  37.9  38.1 1008.4 -9.9 -9.999 -99.9 -99.99 -9.99
2020/01/26 07:42 EST    1.49   2.16    3  229    3  37.9  38.1 1008.4 -9.9 -9.999 -99.9 -99.99 -9.99
2020/01/26 07:48 EST    1.62   2.28    2  238    3  37.9  38.1 1008.4 -9.9 -9.999 -99.9 -99.99 -9.99
2020/01/26 07:54 EST    1.76   2.41    1  207    2  39.6  38.1 1008.4 -9.9 -9.999 -99.9 -99.99 -9.99
2020/01/26 08:00 EST    1.90   2.54    1  196    2  39.4  38.1 1008.4 -9.9 -9.999 -99.9 -99.99 -9.99
2020/01/26 08:06 EST    2.04   2.69    1  182    2  39.6  38.1 1008.5 -9.9 -9.999 -99.9 -99.99 -9.99
2020/01/26 08:12 EST    2.18   2.85    1  189    1  39.9  38.1 1008.5 -9.9 -9.999 -99.9 -99.99 -9.99
2020/01/26 08:18 EST    2.33   3.00    1  190    2  40.3  38.1 1008.4 -9.9 -9.999 -99.9 -99.99 -9.99
2020/01/26 08:24 EST    2.47   3.14    1  207    2  41.5  38.1 1008.4 -9.9 -9.999 -99.9 -99.99 -9.99
2020/01/26 08:30 EST    2.62   3.29    1  217    2  41.9  38.1 1008.5 -9.9 -9.999 -99.9 -99.99 -9.99
2020/01/26 08:36 EST    2.76   3.45    2  191    2  38.7  38.1 1008.5 -9.9 -9.999 -99.9 -99.99 -9.99
2020/01/26 08:42 EST    2.91   3.61    2  187    3  38.3  38.1 1008.5 -9.9 -9.999 -99.9 -99.99 -9.99
2020/01/26 08:48 EST    3.06   3.76    2  200    3  39.4  38.1 1008.4 -9.9 -9.999 -99.9 -99.99 -9.99
2020/01/26 08:54 EST    3.20   3.95    4  235    4  38.7  38.1 1008.4 -9.9 -9.999 -99.9 -99.99 -9.99
2020/01/26 09:00 EST    3.35   4.12    4  234    4  38.8  38.1 1008.3 -9.9 -9.999 -99.9 -99.99 -9.99
2020/01/26 09:06 EST    3.49   4.29    3  215    4  39.7  38.1 1008.3 -9.9 -9.999 -99.9 -99.99 -9.99
2020/01/26 09:12 EST    3.64   4.43    2  227    3  39.9  38.1 1008.2 -9.9 -9.999 -99.9 -99.99 -9.99
2020/01/26 09:18 EST    3.78   4.58    4  265    4  39.2  38.1 1008.2 -9.9 -9.999 -99.9 -99.99 -9.99
2020/01/26 09:24 EST    3.92   4.74    3  258    4  39.6  38.1 1008.1 -9.9 -9.999 -99.9 -99.99 -9.99
2020/01/26 09:30 EST    4.07   4.88    4  260    5  39.9  38.3 1007.9 -9.9 -9.999 -99.9 -99.99 -9.99
2020/01/26 09:36 EST    4.21   5.00    6  266    7  39.9  38.3 1008.0 -9.9 -9.999 -99.9 -99.99 -9.99
2020/01/26 09:42 EST    4.35   5.14    4  261    7  39.9  38.3 1008.0 -9.9 -9.999 -99.9 -99.99 -9.99
2020/01/26 09:48 EST    4.49   5.26    4  261    5  40.1  38.3 1008.0 -9.9 -9.999 -99.9 -99.99 -9.99
2020/01/26 09:54 EST    4.62   5.38    6  261    8  40.5  38.3 1008.1 -9.9 -9.999 -99.9 -99.99 -9.99
2020/01/26 10:00 EST    4.76   5.49    7  264   10  40.5  38.3 1008.1 -9.9 -9.999 -99.9 -99.99 -9.99
2020/01/26 10:06 EST    4.89   5.60    7  282    8  40.8  38.3 1008.0 -9.9 -9.999 -99.9 -99.99 -9.99
2020/01/26 10:12 EST    5.02   5.73    6  266    8  41.0  38.3 1007.9 -9.9 -9.999 -99.9 -99.99 -9.99
2020/01/26 10:18 EST    5.15   5.86    5  276    8  41.0  38.3 1007.8 -9.9 -9.999 -99.9 -99.99 -9.99
2020/01/26 10:24 EST    5.27   5.97    6  275    8  41.4  38.3 1007.8 -9.9 -9.999 -99.9 -99.99 -9.99
2020/01/26 10:30 EST    5.39   6.10    5  257    7  41.2  38.3 1007.8 -9.9 -9.999 -99.9 -99.99 -9.99
2020/01/26 10:36 EST    5.51   6.23    5  258    6  41.7  38.3 1007.6 -9.9 -9.999 -99.9 -99.99 -9.99
2020/01/26 10:42 EST    5.62   6.37    5  251    7  41.5  38.3 1007.6 -9.9 -9.999 -99.9 -99.99 -9.99
2020/01/26 10:48 EST    5.73   6.47    6  222    8  40.3  38.3 1007.6 -9.9 -9.999 -99.9 -99.99 -9.99
2020/01/26 10:54 EST    5.83   6.56    9  223   10  40.5  38.3 1007.6 -9.9 -9.999 -99.9 -99.99 -9.99
2020/01/26 11:00 EST    5.92   6.65    9  229   10  39.9  38.3 1007.5 -9.9 -9.999 -99.9 -99.99 -9.99
2020/01/26 11:06 EST    6.01   6.72   10  224   11  39.9  38.3 1007.5 -9.9 -9.999 -99.9 -99.99 -9.99
2020/01/26 11:12 EST    6.09   6.79   10  231   13  39.9  38.3 1007.4 -9.9 -9.999 -99.9 -99.99 -9.99
2020/01/26 11:18 EST    6.17   6.87   10  273   13  43.0  38.3 1007.3 -9.9 -9.999 -99.9 -99.99 -9.99
2020/01/26 11:24 EST    6.23   6.93   12  281   15  43.3  38.3 1007.1 -9.9 -9.999 -99.9 -99.99 -9.99
2020/01/26 11:30 EST    6.29   6.96   12  280   15  43.3  38.3 1007.0 -9.9 -9.999 -99.9 -99.99 -9.99
2020/01/26 11:36 EST    6.34   7.03   11  285   15  43.2  38.3 1007.0 -9.9 -9.999 -99.9 -99.99 -9.99
2020/01/26 11:42 EST    6.38   7.09   10  291   14  43.7  38.3 1006.9 -9.9 -9.999 -99.9 -99.99 -9.99
2020/01/26 11:48 EST    6.41   7.12   13  282   14  43.5  38.3 1006.8 -9.9 -9.999 -99.9 -99.99 -9.99
2020/01/26 11:54 EST    6.43   7.15   11  277   14  43.7  38.3 1006.7 -9.9 -9.999 -99.9 -99.99 -9.99
2020/01/26 12:00 EST    6.44   7.14   11  287   15  43.3  38.3 1006.6 -9.9 -9.999 -99.9 -99.99 -9.99
2020/01/26 12:06 EST    6.44   7.17   14  281   16  43.9  38.3 1006.4 -9.9 -9.999 -99.9 -99.99 -9.99
2020/01/26 12:12 EST    6.43   7.15   11  280   15  43.9  38.3 1006.3 -9.9 -9.999 -99.9 -99.99 -9.99
2020/01/26 12:18 EST    6.41   7.12   12  291   14  44.1  38.3 1006.3 -9.9 -9.999 -99.9 -99.99 -9.99
2020/01/26 12:24 EST    6.38   7.09   13  300   17  44.1  38.3 1006.2 -9.9 -9.999 -99.9 -99.99 -9.99
2020/01/26 12:30 EST    6.35   7.05   10  296   17  44.6  38.3 1006.2 -9.9 -9.999 -99.9 -99.99 -9.99
2020/01/26 12:36 EST    6.30   7.01   12  299   16  44.4  38.3 1006.1 -9.9 -9.999 -99.9 -99.99 -9.99
2020/01/26 12:42 EST    6.24   6.93   14  294   19  44.4  38.3 1006.1 -9.9 -9.999 -99.9 -99.99 -9.99
2020/01/26 12:48 EST    6.17   6.86   17  289   19  43.9  38.3 1006.0 -9.9 -9.999 -99.9 -99.99 -9.99
2020/01/26 12:54 EST    6.09   6.77   15  300   18  43.9  38.3 1006.0 -9.9 -9.999 -99.9 -99.99 -9.99
2020/01/26 13:00 EST    6.01   6.69   14  310   19  44.2  38.3 1006.0 -9.9 -9.999 -99.9 -99.99 -9.99
2020/01/26 13:06 EST    5.92   6.60   11  289   14  44.1  38.3 1006.0 -9.9 -9.999 -99.9 -99.99 -9.99
2020/01/26 13:12 EST    5.82   6.50   13  290   19  43.9  38.3 1005.9 -9.9 -9.999 -99.9 -99.99 -9.99
2020/01/26 13:18 EST    5.71   6.39   13  297   17  43.7  38.3 1005.8 -9.9 -9.999 -99.9 -99.99 -9.99
2020/01/26 13:24 EST    5.60   6.29   15  295   21  43.7  38.3 1005.8 -9.9 -9.999 -99.9 -99.99 -9.99
2020/01/26 13:30 EST    5.48   6.19   13  296   19  43.9  38.3 1005.8 -9.9 -9.999 -99.9 -99.99 -9.99
2020/01/26 13:36 EST    5.35   6.07   12  293   17  43.9  38.3 1005.8 -9.9 -9.999 -99.9 -99.99 -9.99
2020/01/26 13:42 EST    5.23   5.95   16  291   19  43.9  38.3 1005.6 -9.9 -9.999 -99.9 -99.99 -9.99
2020/01/26 13:48 EST    5.09   5.82   11  295   18  44.1  38.3 1005.6 -9.9 -9.999 -99.9 -99.99 -9.99
2020/01/26 13:54 EST    4.96   5.71   12  294   15  44.1  38.3 1005.6 -9.9 -9.999 -99.9 -99.99 -9.99
2020/01/26 14:00 EST    4.82   5.56   14  297   18  44.4  38.3 1005.5 -9.9 -9.999 -99.9 -99.99 -9.99
2020/01/26 14:06 EST    4.68   5.41   14  304   22  45.0  38.5 1005.4 -9.9 -9.999 -99.9 -99.99 -9.99
2020/01/26 14:12 EST    4.53   5.24   14  299   19  45.0  38.5 1005.4 -9.9 -9.999 -99.9 -99.99 -9.99
2020/01/26 14:18 EST    4.39   5.08   14  297   19  45.1  38.5 1005.5 -9.9 -9.999 -99.9 -99.99 -9.99
2020/01/26 14:24 EST    4.24   4.91   11  289   18  45.0  38.5 1005.4 -9.9 -9.999 -99.9 -99.99 -9.99
2020/01/26 14:30 EST    4.10   4.75   15  290   19  44.8  38.5 1005.4 -9.9 -9.999 -99.9 -99.99 -9.99
2020/01/26 14:36 EST    3.95   4.58   14  283   18  44.8  38.5 1005.5 -9.9 -9.999 -99.9 -99.99 -9.99
2020/01/26 14:42 EST    3.80   4.42   11  286   17  44.8  38.5 1005.6 -9.9 -9.999 -99.9 -99.99 -9.99
2020/01/26 14:48 EST    3.65   4.25   15  286   19  45.0  38.5 1005.6 -9.9 -9.999 -99.9 -99.99 -9.99
2020/01/26 14:54 EST    3.50   4.09   17  283   19  44.8  38.5 1005.7 -9.9 -9.999 -99.9 -99.99 -9.99
2020/01/26 15:00 EST    3.35   3.95   15  285   23  44.6  38.5 1005.8 -9.9 -9.999 -99.9 -99.99 -9.99
2020/01/26 15:06 EST    3.21   3.78   15  285   18  44.2  38.5 1005.8 -9.9 -9.999 -99.9 -99.99 -9.99
2020/01/26 15:12 EST    3.06   3.63   12  294   19  43.9  38.5 1006.0 -9.9 -9.999 -99.9 -99.99 -9.99
2020/01/26 15:18 EST    2.91   3.47   12  295   18  43.9  38.5 1006.1 -9.9 -9.999 -99.9 -99.99 -9.99
2020/01/26 15:24 EST    2.76   3.32   10  290   13  43.9  38.5 1006.1 -9.9 -9.999 -99.9 -99.99 -9.99
2020/01/26 15:30 EST    2.62   3.16   10  288   14  44.1  38.5 1006.1 -9.9 -9.999 -99.9 -99.99 -9.99
2020/01/26 15:36 EST    2.47   3.02    8  296   12  43.9  38.5 1006.1 -9.9 -9.999 -99.9 -99.99 -9.99
2020/01/26 15:42 EST    2.33   2.91    8  298   12  44.1  38.5 1006.1 -9.9 -9.999 -99.9 -99.99 -9.99
2020/01/26 15:48 EST    2.18   2.78    9  299   12  44.1  38.5 1006.1 -9.9 -9.999 -99.9 -99.99 -9.99
2020/01/26 15:54 EST    2.04   2.64    7  291    9  43.7  38.7 1006.2 -9.9 -9.999 -99.9 -99.99 -9.99
2020/01/26 16:00 EST    1.90   2.51    8  277   10  44.1  38.7 1006.2 -9.9 -9.999 -99.9 -99.99 -9.99
2020/01/26 16:06 EST    1.76   2.38    9  284   13  44.1  38.7 1006.2 -9.9 -9.999 -99.9 -99.99 -9.99
2020/01/26 16:12 EST    1.62   2.24    9  307   12  44.1  38.7 1006.2 -9.9 -9.999 -99.9 -99.99 -9.99
2020/01/26 16:18 EST    1.48   2.10    9  280   12  44.1  38.7 1006.2 -9.9 -9.999 -99.9 -99.99 -9.99
2020/01/26 16:24 EST    1.35   1.96    8  278   13  43.7  38.7 1006.3 -9.9 -9.999 -99.9 -99.99 -9.99
2020/01/26 16:30 EST    1.22   1.81    9  286   10  43.7  38.8 1006.3 -9.9 -9.999 -99.9 -99.99 -9.99
2020/01/26 16:36 EST    1.09   1.69    9  282   11  43.5  38.8 1006.4 -9.9 -9.999 -99.9 -99.99 -9.99
2020/01/26 16:42 EST    0.96   1.56    8  280   10  43.3  38.8 1006.4 -9.9 -9.999 -99.9 -99.99 -9.99
2020/01/26 16:48 EST    0.84   1.45    7  283   12  43.3  39.0 1006.4 -9.9 -9.999 -99.9 -99.99 -9.99
2020/01/26 16:54 EST    0.72   1.32    8  272   10  43.5  39.0 1006.5 -9.9 -9.999 -99.9 -99.99 -9.99
2020/01/26 17:00 EST    0.61   1.21    9  273   10  43.5  39.0 1006.5 -9.9 -9.999 -99.9 -99.99 -9.99
2020/01/26 17:06 EST    0.50   1.07    9  271   11  43.2  39.0 1006.6 -9.9 -9.999 -99.9 -99.99 -9.99
2020/01/26 17:12 EST    0.40   0.95    8  281   11  43.0  39.0 1006.7 -9.9 -9.999 -99.9 -99.99 -9.99
2020/01/26 17:18 EST    0.30   0.84    8  278   10  43.0  39.0 1006.7 -9.9 -9.999 -99.9 -99.99 -9.99
2020/01/26 17:24 EST    0.21   0.73    8  286   12  43.0  39.0 1006.7 -9.9 -9.999 -99.9 -99.99 -9.99
2020/01/26 17:30 EST    0.13   0.64    8  286   10  42.8  39.0 1006.8 -9.9 -9.999 -99.9 -99.99 -9.99
2020/01/26 17:36 EST    0.05   0.55    7  282    8  42.6  39.0 1006.8 -9.9 -9.999 -99.9 -99.99 -9.99
2020/01/26 17:42 EST   -0.02   0.49    5  274    7  42.4  39.2 1006.9 -9.9 -9.999 -99.9 -99.99 -9.99
2020/01/26 17:48 EST   -0.08   0.42    6  262    8  42.3  39.2 1006.9 -9.9 -9.999 -99.9 -99.99 -9.99
2020/01/26 17:54 EST   -0.13   0.35    6  274   10  42.4  39.2 1006.9 -9.9 -9.999 -99.9 -99.99 -9.99
2020/01/26 18:00 EST   -0.17   0.29    6  273    8  42.1  39.2 1006.9 -9.9 -9.999 -99.9 -99.99 -9.99
2020/01/26 18:06 EST   -0.20   0.26    5  268    8  41.9  39.2 1006.9 -9.9 -9.999 -99.9 -99.99 -9.99
2020/01/26 18:12 EST   -0.22   0.25    4  255    6  41.7  39.2 1007.0 -9.9 -9.999 -99.9 -99.99 -9.99
2020/01/26 18:18 EST   -0.23   0.24    5  256    5  41.7  39.0 1007.0 -9.9 -9.999 -99.9 -99.99 -9.99
2020/01/26 18:24 EST   -0.24   0.21    6  254    7  41.5  39.0 1007.0 -9.9 -9.999 -99.9 -99.99 -9.99
2020/01/26 18:30 EST   -0.23   0.20    7  259    8  41.4  39.0 1007.1 -9.9 -9.999 -99.9 -99.99 -9.99
2020/01/26 18:36 EST   -0.21   0.21    7  261    8  41.5  39.0 1007.1 -9.9 -9.999 -99.9 -99.99 -9.99
2020/01/26 18:42 EST   -0.18   0.21    8  263    9  41.4  39.0 1007.1 -9.9 -9.999 -99.9 -99.99 -9.99
2020/01/26 18:48 EST   -0.15   0.23    8  263    9  41.2  39.0 1007.1 -9.9 -9.999 -99.9 -99.99 -9.99
2020/01/26 18:54 EST   -0.10   0.26    7  266    8  41.4  39.0 1007.2 -9.9 -9.999 -99.9 -99.99 -9.99
2020/01/26 19:00 EST   -0.05   0.30    6  267    9  41.4  39.0 1007.2 -9.9 -9.999 -99.9 -99.99 -9.99
2020/01/26 19:06 EST    0.02   0.34    6  262    8  41.5  38.8 1007.2 -9.9 -9.999 -99.9 -99.99 -9.99
2020/01/26 19:12 EST    0.09   0.41    5  264    7  41.5  38.8 1007.2 -9.9 -9.999 -99.9 -99.99 -9.99
2020/01/26 19:18 EST    0.17   0.49    6  260    7  41.5  38.8 1007.2 -9.9 -9.999 -99.9 -99.99 -9.99
2020/01/26 19:24 EST    0.26   0.60    6  263    7  41.7  38.8 1007.2 -9.9 -9.999 -99.9 -99.99 -9.99
2020/01/26 19:30 EST    0.36   0.73    5  263    7  41.5  38.8 1007.2 -9.9 -9.999 -99.9 -99.99 -9.99
2020/01/26 19:36 EST    0.46   0.85    5  261    6  41.5  38.8 1007.2 -9.9 -9.999 -99.9 -99.99 -9.99
2020/01/26 19:42 EST    0.56   0.97    7  255    9  41.9  38.8 1007.2 -9.9 -9.999 -99.9 -99.99 -9.99
2020/01/26 19:48 EST    0.68   1.11    8  254   10  42.1  38.8 1007.2 -9.9 -9.999 -99.9 -99.99 -9.99
2020/01/26 19:54 EST    0.79   1.24    9  255   10  42.3  38.8 1007.2 -9.9 -9.999 -99.9 -99.99 -9.99
2020/01/26 20:00 EST    0.92   1.38    9  254   11  42.1  38.8 1007.2 -9.9 -9.999 -99.9 -99.99 -9.99
2020/01/26 20:06 EST    1.04   1.50   11  263   12  42.3  38.8 1007.1 -9.9 -9.999 -99.9 -99.99 -9.99
2020/01/26 20:12 EST    1.17   1.63    9  267   12  42.3  38.8 1007.1 -9.9 -9.999 -99.9 -99.99 -9.99
2020/01/26 20:18 EST    1.30   1.77   10  268   14  42.3  39.0 1007.2 -9.9 -9.999 -99.9 -99.99 -9.99
2020/01/26 20:24 EST    1.44   1.86   10  269   13  42.1  39.0 1007.2 -9.9 -9.999 -99.9 -99.99 -9.99
2020/01/26 20:30 EST    1.57   1.97   12  267   14  42.3  39.0 1007.2 -9.9 -9.999 -99.9 -99.99 -9.99
2020/01/26 20:36 EST    1.71   2.07   11  275   14  42.3  39.0 1007.2 -9.9 -9.999 -99.9 -99.99 -9.99
2020/01/26 20:42 EST    1.85   2.20   11  277   15  42.3  39.0 1007.2 -9.9 -9.999 -99.9 -99.99 -9.99
2020/01/26 20:48 EST    1.99   2.30   10  271   14  42.1  39.0 1007.3 -9.9 -9.999 -99.9 -99.99 -9.99
2020/01/26 20:54 EST    2.13   2.47    9  267   12  41.9  38.8 1007.2 -9.9 -9.999 -99.9 -99.99 -9.99
2020/01/26 21:00 EST    2.27   2.62   10  268   11  42.1  38.8 1007.2 -9.9 -9.999 -99.9 -99.99 -9.99
2020/01/26 21:06 EST    2.41   2.77    9  275   12  41.9  38.8 1007.2 -9.9 -9.999 -99.9 -99.99 -9.99
2020/01/26 21:12 EST    2.56   2.94    9  271   14  41.9  38.8 1007.2 -9.9 -9.999 -99.9 -99.99 -9.99
2020/01/26 21:18 EST    2.70   3.10   10  267   12  42.1  38.8 1007.2 -9.9 -9.999 -99.9 -99.99 -9.99
2020/01/26 21:24 EST    2.84   3.26    9  273   11  41.9  38.8 1007.2 -9.9 -9.999 -99.9 -99.99 -9.99
2020/01/26 21:30 EST    2.98   3.41    9  271   11  41.9  38.8 1007.1 -9.9 -9.999 -99.9 -99.99 -9.99
2020/01/26 21:36 EST    3.12   3.54   10  270   12  41.9  38.8 1007.1 -9.9 -9.999 -99.9 -99.99 -9.99
2020/01/26 21:42 EST    3.26   3.66   10  271   11  41.9  38.8 1007.1 -9.9 -9.999 -99.9 -99.99 -9.99
2020/01/26 21:48 EST    3.40   3.78    8  273   11  41.7  38.8 1007.1 -9.9 -9.999 -99.9 -99.99 -9.99
2020/01/26 21:54 EST    3.54   3.90    9  275   12  41.7  38.8 1007.1 -9.9 -9.999 -99.9 -99.99 -9.99
2020/01/26 22:00 EST    3.67   4.01   10  279   12  41.9  38.8 1007.0 -9.9 -9.999 -99.9 -99.99 -9.99
2020/01/26 22:06 EST    3.81   4.13    9  269   11  41.7  38.8 1007.0 -9.9 -9.999 -99.9 -99.99 -9.99
2020/01/26 22:12 EST    3.95   4.26    9  274   10  41.5  38.8 1007.0 -9.9 -9.999 -99.9 -99.99 -9.99
2020/01/26 22:18 EST    4.08   4.37    9  274   11  41.5  38.8 1006.9 -9.9 -9.999 -99.9 -99.99 -9.99
2020/01/26 22:24 EST    4.21   4.49    8  276   13  41.4  38.8 1006.9 -9.9 -9.999 -99.9 -99.99 -9.99
2020/01/26 22:30 EST    4.34   4.63    9  273   11  41.4  38.8 1007.0 -9.9 -9.999 -99.9 -99.99 -9.99
2020/01/26 22:36 EST    4.47   4.78    9  275   11  41.4  38.8 1006.9 -9.9 -9.999 -99.9 -99.99 -9.99
2020/01/26 22:42 EST    4.60   4.93    9  275   11  41.4  38.8 1006.9 -9.9 -9.999 -99.9 -99.99 -9.99
2020/01/26 22:48 EST    4.72   5.04    9  273   11  41.4  38.8 1006.9 -9.9 -9.999 -99.9 -99.99 -9.99
2020/01/26 22:54 EST    4.84   5.19    9  275   11  41.2  38.8 1006.9 -9.9 -9.999 -99.9 -99.99 -9.99
2020/01/26 23:00 EST    4.96   5.31   10  271   12  41.2  38.8 1006.9 -9.9 -9.999 -99.9 -99.99 -9.99
2020/01/26 23:06 EST    5.07   5.42    8  268   11  40.8  38.8 1006.8 -9.9 -9.999 -99.9 -99.99 -9.99
2020/01/26 23:12 EST    5.17   5.53   11  266   13  41.0  38.7 1006.8 -9.9 -9.999 -99.9 -99.99 -9.99
2020/01/26 23:18 EST    5.28   5.61    9  265   12  41.0  38.7 1006.8 -9.9 -9.999 -99.9 -99.99 -9.99
2020/01/26 23:24 EST    5.37   5.70   11  270   13  40.8  38.7 1006.7 -9.9 -9.999 -99.9 -99.99 -9.99
2020/01/26 23:30 EST    5.46   5.75    9  264   11  40.6  38.7 1006.7 -9.9 -9.999 -99.9 -99.99 -9.99
2020/01/26 23:36 EST    5.55   5.82   11  267   12  40.5  38.7 1006.6 -9.9 -9.999 -99.9 -99.99 -9.99
2020/01/26 23:42 EST    5.62   5.90    9  267   11  40.5  38.7 1006.6 -9.9 -9.999 -99.9 -99.99 -9.99
2020/01/26 23:48 EST    5.69   5.99    8  258   11  40.3  38.7 1006.6 -9.9 -9.999 -99.9 -99.99 -9.99
2020/01/26 23:54 EST    5.75   6.08    8  263    9  39.9  38.7 1006.6 -9.9 -9.999 -99.9 -99.99 -9.99
2020/01/27 00:00 EST    5.80   6.16    9  260   11  39.9  38.7 1006.6 -9.9 -9.999 -99.9 -99.99 -9.99
2020/01/27 00:06 EST    5.85   6.24    9  262   10  39.7  38.7 1006.5 -9.9 -9.999 -99.9 -99.99 -9.99
2020/01/27 00:12 EST    5.88   6.31    7  272   11  39.6  38.7 1006.4 -9.9 -9.999 -99.9 -99.99 -9.99
2020/01/27 00:18 EST    5.91   6.35    8  276   10  39.4  38.7 1006.3 -9.9 -9.999 -99.9 -99.99 -9.99
2020/01/27 00:24 EST    5.92   6.36    8  273   11  39.4  38.7 1006.3 -9.9 -9.999 -99.9 -99.99 -9.99
2020/01/27 00:30 EST    5.93   6.37    7  276   10  39.2  38.7 1006.1 -9.9 -9.999 -99.9 -99.99 -9.99
2020/01/27 00:36 EST    5.93   6.36    7  273   10  39.0  38.7 1006.1 -9.9 -9.999 -99.9 -99.99 -9.99
2020/01/27 00:42 EST    5.91   6.35    8  271   11  38.8  38.7 1006.0 -9.9 -9.999 -99.9 -99.99 -9.99
2020/01/27 00:48 EST    5.89   6.33    7  272    9  38.7  38.7 1005.9 -9.9 -9.999 -99.9 -99.99 -9.99
2020/01/27 00:54 EST    5.86   6.30    7  266    9  38.5  38.7 1005.9 -9.9 -9.999 -99.9 -99.99 -9.99
2020/01/27 01:00 EST    5.81   6.27    8  272   10  38.3  38.7 1005.9 -9.9 -9.999 -99.9 -99.99 -9.99
2020/01/27 01:06 EST    5.76   6.22    7  270    9  38.1  38.7 1005.8 -9.9 -9.999 -99.9 -99.99 -9.99
2020/01/27 01:12 EST    5.70   6.18    7  269    9  37.9  38.7 1005.8 -9.9 -9.999 -99.9 -99.99 -9.99
2020/01/27 01:18 EST    5.63   6.13    6  263    9  37.8  38.7 1005.8 -9.9 -9.999 -99.9 -99.99 -9.99
2020/01/27 01:24 EST    5.56   6.06    7  265    9  37.6  38.7 1005.8 -9.9 -9.999 -99.9 -99.99 -9.99
2020/01/27 01:30 EST    5.47   5.99    7  265    9  37.6  38.7 1005.7 -9.9 -9.999 -99.9 -99.99 -9.99
2020/01/27 01:36 EST    5.38   5.90    6  263    8  37.4  38.7 1005.7 -9.9 -9.999 -99.9 -99.99 -9.99
2020/01/27 01:42 EST    5.29   5.80    7  263    9  37.2  38.7 1005.7 -9.9 -9.999 -99.9 -99.99 -9.99
2020/01/27 01:48 EST    5.18   5.70    5  259    8  37.2  38.7 1005.6 -9.9 -9.999 -99.9 -99.99 -9.99
2020/01/27 01:54 EST    5.08   5.58    5  266    7  37.0  38.7 1005.6 -9.9 -9.999 -99.9 -99.99 -9.99
2020/01/27 02:00 EST    4.96   5.49    6  258    7  37.0  38.7 1005.6 -9.9 -9.999 -99.9 -99.99 -9.99
2020/01/27 02:06 EST    4.84   5.36    7  249    8  36.9  38.7 1005.6 -9.9 -9.999 -99.9 -99.99 -9.99
2020/01/27 02:12 EST    4.72   5.24    6  244    8  36.7  38.7 1005.5 -9.9 -9.999 -99.9 -99.99 -9.99
2020/01/27 02:18 EST    4.60   5.11    5  248    7  36.5  38.7 1005.5 -9.9 -9.999 -99.9 -99.99 -9.99
2020/01/27 02:24 EST    4.47   4.95    5  244    6  36.3  38.7 1005.4 -9.9 -9.999 -99.9 -99.99 -9.99
2020/01/27 02:30 EST    4.34   4.83    4  249    7  36.3  38.7 1005.3 -9.9 -9.999 -99.9 -99.99 -9.99
2020/01/27 02:36 EST    4.21   4.70    4  252    6  36.1  38.7 1005.3 -9.9 -9.999 -99.9 -99.99 -9.99
2020/01/27 02:42 EST    4.08   4.57    4  268    6  36.1  38.7 1005.3 -9.9 -9.999 -99.9 -99.99 -9.99
2020/01/27 02:48 EST    3.95   4.44    6  264    8  36.1  38.7 1005.3 -9.9 -9.999 -99.9 -99.99 -9.99
2020/01/27 02:54 EST    3.81   4.30    6  274    8  36.1  38.7 1005.2 -9.9 -9.999 -99.9 -99.99 -9.99
2020/01/27 03:00 EST    3.68   4.18    8  282    9  36.0  38.7 1005.2 -9.9 -9.999 -99.9 -99.99 -9.99
2020/01/27 03:06 EST    3.55   4.05    7  285    9  35.8  38.7 1005.1 -9.9 -9.999 -99.9 -99.99 -9.99
2020/01/27 03:12 EST    3.41   3.92    8  277    9  35.8  38.8 1005.0 -9.9 -9.999 -99.9 -99.99 -9.99
2020/01/27 03:18 EST    3.28   3.78    9  278   11  35.8  38.8 1004.9 -9.9 -9.999 -99.9 -99.99 -9.99
2020/01/27 03:24 EST    3.15   3.64   10  282   12  36.0  38.8 1004.8 -9.9 -9.999 -99.9 -99.99 -9.99
2020/01/27 03:30 EST    3.01   3.48    9  277   13  36.1  38.8 1004.8 -9.9 -9.999 -99.9 -99.99 -9.99
2020/01/27 03:36 EST    2.88   3.32    8  272   11  36.3  38.8 1004.8 -9.9 -9.999 -99.9 -99.99 -9.99
2020/01/27 03:42 EST    2.75   3.17    9  269   11  36.3  38.8 1004.8 -9.9 -9.999 -99.9 -99.99 -9.99
2020/01/27 03:48 EST    2.62   3.05    9  268   12  36.7  38.8 1004.7 -9.9 -9.999 -99.9 -99.99 -9.99
2020/01/27 03:54 EST    2.49   2.91    9  270   11  36.9  38.8 1004.7 -9.9 -9.999 -99.9 -99.99 -9.99
2020/01/27 04:00 EST    2.36   2.81    9  268   11  36.9  38.8 1004.7 -9.9 -9.999 -99.9 -99.99 -9.99
2020/01/27 04:06 EST    2.24   2.71   10  266   12  36.9  38.8 1004.6 -9.9 -9.999 -99.9 -99.99 -9.99
2020/01/27 04:12 EST    2.11   2.62   10  269   12  36.9  38.8 1004.7 -9.9 -9.999 -99.9 -99.99 -9.99
2020/01/27 04:18 EST    1.99   2.53    9  270   12  36.7  38.8 1004.6 -9.9 -9.999 -99.9 -99.99 -9.99
2020/01/27 04:24 EST    1.87   2.42   10  264   11  36.5  38.8 1004.6 -9.9 -9.999 -99.9 -99.99 -9.99
2020/01/27 04:30 EST    1.74   2.28    9  268   11  36.5  38.8 1004.6 -9.9 -9.999 -99.9 -99.99 -9.99
2020/01/27 04:36 EST    1.62   2.16    8  265   10  36.5  38.8 1004.6 -9.9 -9.999 -99.9 -99.99 -9.99
2020/01/27 04:42 EST    1.51   2.03    7  272   10  36.3  38.8 1004.4 -9.9 -9.999 -99.9 -99.99 -9.99
2020/01/27 04:48 EST    1.39   1.92    8  270   10  36.3  38.8 1004.4 -9.9 -9.999 -99.9 -99.99 -9.99
2020/01/27 04:54 EST    1.28   1.80    8  267   10  36.3  38.8 1004.5 -9.9 -9.999 -99.9 -99.99 -9.99
2020/01/27 05:00 EST    1.17 -99.99 -999 -999 -999 -99.9 -99.9 -999.9 -9.9 -9.999 -99.9 -99.99 -9.99
2020/01/27 05:06 EST    1.06 -99.99 -999 -999 -999 -99.9 -99.9 -999.9 -9.9 -9.999 -99.9 -99.99 -9.99